<?xml version="1.0" encoding="UTF-8" standalone="no" ?>
<gpx xmlns="http://www.topografix.com/GPX/1/1" xmlns:xsi="http://www.w3.org/2001/XMLSchema-instance" xsi:schemaLocation="http://www.topografix.com/GPX/1/1 http://www.topografix.com/GPX/1/1/gpx.xsd" version="1.1" creator="VisuGPX - https://www.visugpx.com">
  <metadata>
    <name>Trotting Ducambanderie (piste cyclable)</name>
    <desc><![CDATA[Trotting 11 mns ( moyenne 7.5, fini à 8,5) suivit de 5 minute pas actif, et 40 mns trotting (moyenne, 8.8 monte un moment jusqu\\\'à 10.5 puis redescendant et garde bien les 10 dernières mns du 9.8) de nouveau... pas essoufflée !]]></desc>
  </metadata>
  <trk>
    <name><![CDATA[Trotting  Ducambanderie (piste cyclable)]]></name>
    <desc><![CDATA[Trotting 11 mns ( moyenne 7.5, fini à 8,5) suivit de 5 minute pas actif, et 40 mns trotting (moyenne, 8.8 monte un moment jusqu'à 10.5 puis redescendant et garde ben les 10 dernières mns du 9.8)de nouveau... pas essoufflée !]]></desc>
    <trkseg>
      <trkpt lat="48.70709" lon="1.75749">
        <ele>173.80000305176</ele>
        <time>2011-09-20T07:36:04.000Z</time>
      </trkpt>
      <trkpt lat="48.7071" lon="1.75747">
        <ele>173.80000305176</ele>
        <time>2011-09-20T07:36:05.000Z</time>
      </trkpt>
      <trkpt lat="48.7071" lon="1.75747">
        <ele>173.80000305176</ele>
        <time>2011-09-20T07:36:05.000Z</time>
      </trkpt>
      <trkpt lat="48.70706" lon="1.75739">
        <ele>174</ele>
        <time>2011-09-20T07:36:11.000Z</time>
      </trkpt>
      <trkpt lat="48.70703" lon="1.75734">
        <ele>174</ele>
        <time>2011-09-20T07:36:14.000Z</time>
      </trkpt>
      <trkpt lat="48.70699" lon="1.7573">
        <ele>174</ele>
        <time>2011-09-20T07:36:17.000Z</time>
      </trkpt>
      <trkpt lat="48.70698" lon="1.75728">
        <ele>174</ele>
        <time>2011-09-20T07:36:19.000Z</time>
      </trkpt>
      <trkpt lat="48.70695" lon="1.75726">
        <ele>174</ele>
        <time>2011-09-20T07:36:21.000Z</time>
      </trkpt>
      <trkpt lat="48.70686" lon="1.75719">
        <ele>174</ele>
        <time>2011-09-20T07:36:27.000Z</time>
      </trkpt>
      <trkpt lat="48.70684" lon="1.75716">
        <ele>174.19999694824</ele>
        <time>2011-09-20T07:36:29.000Z</time>
      </trkpt>
      <trkpt lat="48.7068" lon="1.75713">
        <ele>174.19999694824</ele>
        <time>2011-09-20T07:36:32.000Z</time>
      </trkpt>
      <trkpt lat="48.70675" lon="1.75706">
        <ele>174.39999389648</ele>
        <time>2011-09-20T07:36:38.000Z</time>
      </trkpt>
      <trkpt lat="48.70669" lon="1.757">
        <ele>174.39999389648</ele>
        <time>2011-09-20T07:36:43.000Z</time>
      </trkpt>
      <trkpt lat="48.70666" lon="1.75697">
        <ele>174.60000610352</ele>
        <time>2011-09-20T07:36:46.000Z</time>
      </trkpt>
      <trkpt lat="48.70664" lon="1.75696">
        <ele>174.80000305176</ele>
        <time>2011-09-20T07:36:48.000Z</time>
      </trkpt>
      <trkpt lat="48.70658" lon="1.75693">
        <ele>175.39999389648</ele>
        <time>2011-09-20T07:36:54.000Z</time>
      </trkpt>
      <trkpt lat="48.70657" lon="1.75692">
        <ele>175.60000610352</ele>
        <time>2011-09-20T07:36:55.000Z</time>
      </trkpt>
      <trkpt lat="48.7065" lon="1.7569">
        <ele>176.39999389648</ele>
        <time>2011-09-20T07:37:01.000Z</time>
      </trkpt>
      <trkpt lat="48.70648" lon="1.75683">
        <ele>176.80000305176</ele>
        <time>2011-09-20T07:37:05.000Z</time>
      </trkpt>
      <trkpt lat="48.70641" lon="1.75672">
        <ele>177.80000305176</ele>
        <time>2011-09-20T07:37:11.000Z</time>
      </trkpt>
      <trkpt lat="48.70636" lon="1.75659">
        <ele>178.60000610352</ele>
        <time>2011-09-20T07:37:18.000Z</time>
      </trkpt>
      <trkpt lat="48.70635" lon="1.75645">
        <ele>178.60000610352</ele>
        <time>2011-09-20T07:37:24.000Z</time>
      </trkpt>
      <trkpt lat="48.70637" lon="1.75632">
        <ele>178.19999694824</ele>
        <time>2011-09-20T07:37:28.000Z</time>
      </trkpt>
      <trkpt lat="48.7064" lon="1.75627">
        <ele>177.80000305176</ele>
        <time>2011-09-20T07:37:29.000Z</time>
      </trkpt>
      <trkpt lat="48.70648" lon="1.75614">
        <ele>176.80000305176</ele>
        <time>2011-09-20T07:37:34.000Z</time>
      </trkpt>
      <trkpt lat="48.70647" lon="1.75608">
        <ele>176.80000305176</ele>
        <time>2011-09-20T07:37:40.000Z</time>
      </trkpt>
      <trkpt lat="48.70651" lon="1.75595">
        <ele>176.39999389648</ele>
        <time>2011-09-20T07:37:47.000Z</time>
      </trkpt>
      <trkpt lat="48.70658" lon="1.75571">
        <ele>175.19999694824</ele>
        <time>2011-09-20T07:37:59.000Z</time>
      </trkpt>
      <trkpt lat="48.70669" lon="1.75555">
        <ele>174.19999694824</ele>
        <time>2011-09-20T07:38:09.000Z</time>
      </trkpt>
      <trkpt lat="48.70674" lon="1.75544">
        <ele>173.80000305176</ele>
        <time>2011-09-20T07:38:16.000Z</time>
      </trkpt>
      <trkpt lat="48.70675" lon="1.75543">
        <ele>173.60000610352</ele>
        <time>2011-09-20T07:38:17.000Z</time>
      </trkpt>
      <trkpt lat="48.70682" lon="1.75529">
        <ele>173.19999694824</ele>
        <time>2011-09-20T07:38:25.000Z</time>
      </trkpt>
      <trkpt lat="48.7069" lon="1.75513">
        <ele>172.60000610352</ele>
        <time>2011-09-20T07:38:34.000Z</time>
      </trkpt>
      <trkpt lat="48.70698" lon="1.75496">
        <ele>172</ele>
        <time>2011-09-20T07:38:44.000Z</time>
      </trkpt>
      <trkpt lat="48.70702" lon="1.75486">
        <ele>172</ele>
        <time>2011-09-20T07:38:49.000Z</time>
      </trkpt>
      <trkpt lat="48.70703" lon="1.75486">
        <ele>172</ele>
        <time>2011-09-20T07:38:53.000Z</time>
      </trkpt>
      <trkpt lat="48.70706" lon="1.75479">
        <ele>171.80000305176</ele>
        <time>2011-09-20T07:38:59.000Z</time>
      </trkpt>
      <trkpt lat="48.70712" lon="1.75462">
        <ele>171.60000610352</ele>
        <time>2011-09-20T07:39:07.000Z</time>
      </trkpt>
      <trkpt lat="48.70716" lon="1.75451">
        <ele>171.60000610352</ele>
        <time>2011-09-20T07:39:13.000Z</time>
      </trkpt>
      <trkpt lat="48.70722" lon="1.75436">
        <ele>171.60000610352</ele>
        <time>2011-09-20T07:39:21.000Z</time>
      </trkpt>
      <trkpt lat="48.70722" lon="1.75434">
        <ele>171.60000610352</ele>
        <time>2011-09-20T07:39:22.000Z</time>
      </trkpt>
      <trkpt lat="48.70727" lon="1.75428">
        <ele>171.60000610352</ele>
        <time>2011-09-20T07:39:26.000Z</time>
      </trkpt>
      <trkpt lat="48.7073" lon="1.75422">
        <ele>171.60000610352</ele>
        <time>2011-09-20T07:39:30.000Z</time>
      </trkpt>
      <trkpt lat="48.70732" lon="1.75415">
        <ele>171.60000610352</ele>
        <time>2011-09-20T07:39:34.000Z</time>
      </trkpt>
      <trkpt lat="48.70734" lon="1.7541">
        <ele>171.80000305176</ele>
        <time>2011-09-20T07:39:37.000Z</time>
      </trkpt>
      <trkpt lat="48.70738" lon="1.75401">
        <ele>172</ele>
        <time>2011-09-20T07:39:42.000Z</time>
      </trkpt>
      <trkpt lat="48.70744" lon="1.75386">
        <ele>172.19999694824</ele>
        <time>2011-09-20T07:39:50.000Z</time>
      </trkpt>
      <trkpt lat="48.70748" lon="1.75376">
        <ele>172.39999389648</ele>
        <time>2011-09-20T07:39:56.000Z</time>
      </trkpt>
      <trkpt lat="48.70753" lon="1.75364">
        <ele>172.60000610352</ele>
        <time>2011-09-20T07:40:03.000Z</time>
      </trkpt>
      <trkpt lat="48.70759" lon="1.75352">
        <ele>172.80000305176</ele>
        <time>2011-09-20T07:40:10.000Z</time>
      </trkpt>
      <trkpt lat="48.7076" lon="1.75348">
        <ele>172.80000305176</ele>
        <time>2011-09-20T07:40:12.000Z</time>
      </trkpt>
      <trkpt lat="48.70763" lon="1.75339">
        <ele>173</ele>
        <time>2011-09-20T07:40:17.000Z</time>
      </trkpt>
      <trkpt lat="48.7077" lon="1.75321">
        <ele>173.19999694824</ele>
        <time>2011-09-20T07:40:28.000Z</time>
      </trkpt>
      <trkpt lat="48.70777" lon="1.75302">
        <ele>173.19999694824</ele>
        <time>2011-09-20T07:40:38.000Z</time>
      </trkpt>
      <trkpt lat="48.70778" lon="1.75297">
        <ele>173.19999694824</ele>
        <time>2011-09-20T07:40:41.000Z</time>
      </trkpt>
      <trkpt lat="48.7078" lon="1.75292">
        <ele>173.19999694824</ele>
        <time>2011-09-20T07:40:45.000Z</time>
      </trkpt>
      <trkpt lat="48.70781" lon="1.75289">
        <ele>173.19999694824</ele>
        <time>2011-09-20T07:40:50.000Z</time>
      </trkpt>
      <trkpt lat="48.70787" lon="1.75276">
        <ele>173.39999389648</ele>
        <time>2011-09-20T07:41:08.000Z</time>
      </trkpt>
      <trkpt lat="48.70791" lon="1.75265">
        <ele>173.39999389648</ele>
        <time>2011-09-20T07:41:14.000Z</time>
      </trkpt>
      <trkpt lat="48.70795" lon="1.75255">
        <ele>173.39999389648</ele>
        <time>2011-09-20T07:41:20.000Z</time>
      </trkpt>
      <trkpt lat="48.70799" lon="1.75246">
        <ele>173.39999389648</ele>
        <time>2011-09-20T07:41:26.000Z</time>
      </trkpt>
      <trkpt lat="48.708" lon="1.75244">
        <ele>173.60000610352</ele>
        <time>2011-09-20T07:41:27.000Z</time>
      </trkpt>
      <trkpt lat="48.70802" lon="1.75238">
        <ele>173.60000610352</ele>
        <time>2011-09-20T07:41:31.000Z</time>
      </trkpt>
      <trkpt lat="48.70805" lon="1.75232">
        <ele>173.60000610352</ele>
        <time>2011-09-20T07:41:35.000Z</time>
      </trkpt>
      <trkpt lat="48.70815" lon="1.75211">
        <ele>173.60000610352</ele>
        <time>2011-09-20T07:41:47.000Z</time>
      </trkpt>
      <trkpt lat="48.70821" lon="1.75196">
        <ele>173.80000305176</ele>
        <time>2011-09-20T07:41:56.000Z</time>
      </trkpt>
      <trkpt lat="48.70828" lon="1.75181">
        <ele>173.80000305176</ele>
        <time>2011-09-20T07:42:05.000Z</time>
      </trkpt>
      <trkpt lat="48.70833" lon="1.75169">
        <ele>173.80000305176</ele>
        <time>2011-09-20T07:42:12.000Z</time>
      </trkpt>
      <trkpt lat="48.70836" lon="1.75162">
        <ele>174</ele>
        <time>2011-09-20T07:42:16.000Z</time>
      </trkpt>
      <trkpt lat="48.70842" lon="1.75148">
        <ele>174</ele>
        <time>2011-09-20T07:42:23.000Z</time>
      </trkpt>
      <trkpt lat="48.70844" lon="1.75143">
        <ele>174</ele>
        <time>2011-09-20T07:42:26.000Z</time>
      </trkpt>
      <trkpt lat="48.70848" lon="1.75135">
        <ele>174</ele>
        <time>2011-09-20T07:42:31.000Z</time>
      </trkpt>
      <trkpt lat="48.70854" lon="1.75123">
        <ele>174</ele>
        <time>2011-09-20T07:42:38.000Z</time>
      </trkpt>
      <trkpt lat="48.70858" lon="1.75112">
        <ele>174</ele>
        <time>2011-09-20T07:42:45.000Z</time>
      </trkpt>
      <trkpt lat="48.70858" lon="1.75111">
        <ele>174</ele>
        <time>2011-09-20T07:42:47.000Z</time>
      </trkpt>
      <trkpt lat="48.70863" lon="1.75101">
        <ele>174</ele>
        <time>2011-09-20T07:43:31.000Z</time>
      </trkpt>
      <trkpt lat="48.70866" lon="1.75094">
        <ele>174</ele>
        <time>2011-09-20T07:43:34.000Z</time>
      </trkpt>
      <trkpt lat="48.70874" lon="1.75078">
        <ele>174</ele>
        <time>2011-09-20T07:43:43.000Z</time>
      </trkpt>
      <trkpt lat="48.70878" lon="1.7507">
        <ele>174</ele>
        <time>2011-09-20T07:43:48.000Z</time>
      </trkpt>
      <trkpt lat="48.70879" lon="1.75068">
        <ele>174</ele>
        <time>2011-09-20T07:43:49.000Z</time>
      </trkpt>
      <trkpt lat="48.70881" lon="1.75061">
        <ele>174.19999694824</ele>
        <time>2011-09-20T07:43:53.000Z</time>
      </trkpt>
      <trkpt lat="48.70886" lon="1.7505">
        <ele>174.39999389648</ele>
        <time>2011-09-20T07:43:59.000Z</time>
      </trkpt>
      <trkpt lat="48.70888" lon="1.75047">
        <ele>174.39999389648</ele>
        <time>2011-09-20T07:44:01.000Z</time>
      </trkpt>
      <trkpt lat="48.70893" lon="1.75036">
        <ele>174.39999389648</ele>
        <time>2011-09-20T07:44:07.000Z</time>
      </trkpt>
      <trkpt lat="48.70898" lon="1.75027">
        <ele>174.60000610352</ele>
        <time>2011-09-20T07:44:13.000Z</time>
      </trkpt>
      <trkpt lat="48.70905" lon="1.75013">
        <ele>174.80000305176</ele>
        <time>2011-09-20T07:44:21.000Z</time>
      </trkpt>
      <trkpt lat="48.70914" lon="1.74993">
        <ele>174.80000305176</ele>
        <time>2011-09-20T07:44:32.000Z</time>
      </trkpt>
      <trkpt lat="48.70921" lon="1.74978">
        <ele>175</ele>
        <time>2011-09-20T07:44:40.000Z</time>
      </trkpt>
      <trkpt lat="48.70929" lon="1.74963">
        <ele>175.39999389648</ele>
        <time>2011-09-20T07:44:49.000Z</time>
      </trkpt>
      <trkpt lat="48.70933" lon="1.74955">
        <ele>175.60000610352</ele>
        <time>2011-09-20T07:44:54.000Z</time>
      </trkpt>
      <trkpt lat="48.70937" lon="1.74951">
        <ele>175.80000305176</ele>
        <time>2011-09-20T07:44:58.000Z</time>
      </trkpt>
      <trkpt lat="48.70944" lon="1.74938">
        <ele>176.19999694824</ele>
        <time>2011-09-20T07:45:05.000Z</time>
      </trkpt>
      <trkpt lat="48.70948" lon="1.74933">
        <ele>176.39999389648</ele>
        <time>2011-09-20T07:45:08.000Z</time>
      </trkpt>
      <trkpt lat="48.70949" lon="1.74931">
        <ele>176.39999389648</ele>
        <time>2011-09-20T07:45:10.000Z</time>
      </trkpt>
      <trkpt lat="48.70953" lon="1.74926">
        <ele>176.60000610352</ele>
        <time>2011-09-20T07:45:14.000Z</time>
      </trkpt>
      <trkpt lat="48.70961" lon="1.74915">
        <ele>177</ele>
        <time>2011-09-20T07:45:22.000Z</time>
      </trkpt>
      <trkpt lat="48.7097" lon="1.74902">
        <ele>177.60000610352</ele>
        <time>2011-09-20T07:45:30.000Z</time>
      </trkpt>
      <trkpt lat="48.70971" lon="1.74899">
        <ele>177.80000305176</ele>
        <time>2011-09-20T07:45:32.000Z</time>
      </trkpt>
      <trkpt lat="48.70978" lon="1.74889">
        <ele>178.19999694824</ele>
        <time>2011-09-20T07:45:40.000Z</time>
      </trkpt>
      <trkpt lat="48.70987" lon="1.74877">
        <ele>178.60000610352</ele>
        <time>2011-09-20T07:45:47.000Z</time>
      </trkpt>
      <trkpt lat="48.70998" lon="1.74864">
        <ele>178.80000305176</ele>
        <time>2011-09-20T07:45:56.000Z</time>
      </trkpt>
      <trkpt lat="48.71001" lon="1.7486">
        <ele>178.80000305176</ele>
        <time>2011-09-20T07:45:59.000Z</time>
      </trkpt>
      <trkpt lat="48.71005" lon="1.74852">
        <ele>178.60000610352</ele>
        <time>2011-09-20T07:46:04.000Z</time>
      </trkpt>
      <trkpt lat="48.71008" lon="1.74835">
        <ele>178.39999389648</ele>
        <time>2011-09-20T07:46:11.000Z</time>
      </trkpt>
      <trkpt lat="48.71007" lon="1.74828">
        <ele>178.39999389648</ele>
        <time>2011-09-20T07:46:15.000Z</time>
      </trkpt>
      <trkpt lat="48.71007" lon="1.74824">
        <ele>178.39999389648</ele>
        <time>2011-09-20T07:46:17.000Z</time>
      </trkpt>
      <trkpt lat="48.71002" lon="1.74816">
        <ele>178.60000610352</ele>
        <time>2011-09-20T07:46:23.000Z</time>
      </trkpt>
      <trkpt lat="48.70993" lon="1.74806">
        <ele>178.60000610352</ele>
        <time>2011-09-20T07:46:30.000Z</time>
      </trkpt>
      <trkpt lat="48.70986" lon="1.74798">
        <ele>178.39999389648</ele>
        <time>2011-09-20T07:46:36.000Z</time>
      </trkpt>
      <trkpt lat="48.70977" lon="1.74788">
        <ele>178.19999694824</ele>
        <time>2011-09-20T07:46:43.000Z</time>
      </trkpt>
      <trkpt lat="48.70968" lon="1.74779">
        <ele>178.19999694824</ele>
        <time>2011-09-20T07:46:50.000Z</time>
      </trkpt>
      <trkpt lat="48.7096" lon="1.7477">
        <ele>178</ele>
        <time>2011-09-20T07:46:57.000Z</time>
      </trkpt>
      <trkpt lat="48.70951" lon="1.74759">
        <ele>178</ele>
        <time>2011-09-20T07:47:05.000Z</time>
      </trkpt>
      <trkpt lat="48.7094" lon="1.74745">
        <ele>177.80000305176</ele>
        <time>2011-09-20T07:47:15.000Z</time>
      </trkpt>
      <trkpt lat="48.70927" lon="1.74727">
        <ele>177.39999389648</ele>
        <time>2011-09-20T07:47:27.000Z</time>
      </trkpt>
      <trkpt lat="48.70921" lon="1.74719">
        <ele>177.19999694824</ele>
        <time>2011-09-20T07:47:35.000Z</time>
      </trkpt>
      <trkpt lat="48.70917" lon="1.74714">
        <ele>177</ele>
        <time>2011-09-20T07:47:47.000Z</time>
      </trkpt>
      <trkpt lat="48.7091" lon="1.74704">
        <ele>176.80000305176</ele>
        <time>2011-09-20T07:47:53.000Z</time>
      </trkpt>
      <trkpt lat="48.70902" lon="1.74692">
        <ele>176.60000610352</ele>
        <time>2011-09-20T07:48:01.000Z</time>
      </trkpt>
      <trkpt lat="48.70894" lon="1.74683">
        <ele>176.39999389648</ele>
        <time>2011-09-20T07:48:08.000Z</time>
      </trkpt>
      <trkpt lat="48.70882" lon="1.74668">
        <ele>176</ele>
        <time>2011-09-20T07:48:19.000Z</time>
      </trkpt>
      <trkpt lat="48.70874" lon="1.74657">
        <ele>175.80000305176</ele>
        <time>2011-09-20T07:48:27.000Z</time>
      </trkpt>
      <trkpt lat="48.70866" lon="1.74647">
        <ele>175.80000305176</ele>
        <time>2011-09-20T07:48:34.000Z</time>
      </trkpt>
      <trkpt lat="48.70858" lon="1.74636">
        <ele>175.80000305176</ele>
        <time>2011-09-20T07:48:41.000Z</time>
      </trkpt>
      <trkpt lat="48.70851" lon="1.74625">
        <ele>175.80000305176</ele>
        <time>2011-09-20T07:48:48.000Z</time>
      </trkpt>
      <trkpt lat="48.70849" lon="1.74622">
        <ele>175.80000305176</ele>
        <time>2011-09-20T07:48:53.000Z</time>
      </trkpt>
      <trkpt lat="48.70844" lon="1.74615">
        <ele>175.80000305176</ele>
        <time>2011-09-20T07:48:58.000Z</time>
      </trkpt>
      <trkpt lat="48.7084" lon="1.74609">
        <ele>175.80000305176</ele>
        <time>2011-09-20T07:49:02.000Z</time>
      </trkpt>
      <trkpt lat="48.70837" lon="1.74604">
        <ele>175.80000305176</ele>
        <time>2011-09-20T07:49:05.000Z</time>
      </trkpt>
      <trkpt lat="48.7083" lon="1.74599">
        <ele>176</ele>
        <time>2011-09-20T07:49:10.000Z</time>
      </trkpt>
      <trkpt lat="48.70823" lon="1.74592">
        <ele>176</ele>
        <time>2011-09-20T07:49:16.000Z</time>
      </trkpt>
      <trkpt lat="48.70819" lon="1.74587">
        <ele>176</ele>
        <time>2011-09-20T07:49:20.000Z</time>
      </trkpt>
      <trkpt lat="48.70814" lon="1.74575">
        <ele>176.19999694824</ele>
        <time>2011-09-20T07:49:26.000Z</time>
      </trkpt>
      <trkpt lat="48.70808" lon="1.74571">
        <ele>176.19999694824</ele>
        <time>2011-09-20T07:49:30.000Z</time>
      </trkpt>
      <trkpt lat="48.70807" lon="1.7457">
        <ele>176.19999694824</ele>
        <time>2011-09-20T07:49:31.000Z</time>
      </trkpt>
      <trkpt lat="48.70801" lon="1.74561">
        <ele>176.19999694824</ele>
        <time>2011-09-20T07:49:37.000Z</time>
      </trkpt>
      <trkpt lat="48.70793" lon="1.74549">
        <ele>176.39999389648</ele>
        <time>2011-09-20T07:49:45.000Z</time>
      </trkpt>
      <trkpt lat="48.70783" lon="1.74535">
        <ele>176.60000610352</ele>
        <time>2011-09-20T07:49:54.000Z</time>
      </trkpt>
      <trkpt lat="48.7078" lon="1.74532">
        <ele>176.60000610352</ele>
        <time>2011-09-20T07:49:57.000Z</time>
      </trkpt>
      <trkpt lat="48.70772" lon="1.74525">
        <ele>176.60000610352</ele>
        <time>2011-09-20T07:50:04.000Z</time>
      </trkpt>
      <trkpt lat="48.70771" lon="1.74524">
        <ele>176.60000610352</ele>
        <time>2011-09-20T07:50:05.000Z</time>
      </trkpt>
      <trkpt lat="48.70762" lon="1.74516">
        <ele>176.80000305176</ele>
        <time>2011-09-20T07:50:12.000Z</time>
      </trkpt>
      <trkpt lat="48.70757" lon="1.74509">
        <ele>176.80000305176</ele>
        <time>2011-09-20T07:50:17.000Z</time>
      </trkpt>
      <trkpt lat="48.70752" lon="1.74505">
        <ele>176.80000305176</ele>
        <time>2011-09-20T07:50:21.000Z</time>
      </trkpt>
      <trkpt lat="48.70746" lon="1.74498">
        <ele>177</ele>
        <time>2011-09-20T07:50:26.000Z</time>
      </trkpt>
      <trkpt lat="48.70738" lon="1.74489">
        <ele>177.39999389648</ele>
        <time>2011-09-20T07:50:33.000Z</time>
      </trkpt>
      <trkpt lat="48.70728" lon="1.74479">
        <ele>178</ele>
        <time>2011-09-20T07:50:41.000Z</time>
      </trkpt>
      <trkpt lat="48.70728" lon="1.74475">
        <ele>178</ele>
        <time>2011-09-20T07:50:45.000Z</time>
      </trkpt>
      <trkpt lat="48.70726" lon="1.74461">
        <ele>178.19999694824</ele>
        <time>2011-09-20T07:51:19.000Z</time>
      </trkpt>
      <trkpt lat="48.7073" lon="1.74454">
        <ele>178.19999694824</ele>
        <time>2011-09-20T07:51:22.000Z</time>
      </trkpt>
      <trkpt lat="48.70742" lon="1.74444">
        <ele>177.80000305176</ele>
        <time>2011-09-20T07:51:31.000Z</time>
      </trkpt>
      <trkpt lat="48.70749" lon="1.7444">
        <ele>177.60000610352</ele>
        <time>2011-09-20T07:51:36.000Z</time>
      </trkpt>
      <trkpt lat="48.70755" lon="1.74437">
        <ele>177.60000610352</ele>
        <time>2011-09-20T07:51:40.000Z</time>
      </trkpt>
      <trkpt lat="48.70757" lon="1.74435">
        <ele>177.60000610352</ele>
        <time>2011-09-20T07:51:42.000Z</time>
      </trkpt>
      <trkpt lat="48.70766" lon="1.74429">
        <ele>177.39999389648</ele>
        <time>2011-09-20T07:51:50.000Z</time>
      </trkpt>
      <trkpt lat="48.70774" lon="1.74424">
        <ele>177.19999694824</ele>
        <time>2011-09-20T07:51:56.000Z</time>
      </trkpt>
      <trkpt lat="48.70775" lon="1.74423">
        <ele>177.19999694824</ele>
        <time>2011-09-20T07:51:57.000Z</time>
      </trkpt>
      <trkpt lat="48.7078" lon="1.7442">
        <ele>177.19999694824</ele>
        <time>2011-09-20T07:52:01.000Z</time>
      </trkpt>
      <trkpt lat="48.70789" lon="1.74416">
        <ele>177</ele>
        <time>2011-09-20T07:52:08.000Z</time>
      </trkpt>
      <trkpt lat="48.70792" lon="1.74414">
        <ele>177</ele>
        <time>2011-09-20T07:52:11.000Z</time>
      </trkpt>
      <trkpt lat="48.70795" lon="1.74414">
        <ele>176.80000305176</ele>
        <time>2011-09-20T07:52:14.000Z</time>
      </trkpt>
      <trkpt lat="48.70793" lon="1.74417">
        <ele>176.80000305176</ele>
        <time>2011-09-20T07:52:20.000Z</time>
      </trkpt>
      <trkpt lat="48.70798" lon="1.74411">
        <ele>176.80000305176</ele>
        <time>2011-09-20T07:52:29.000Z</time>
      </trkpt>
      <trkpt lat="48.70806" lon="1.74405">
        <ele>176.80000305176</ele>
        <time>2011-09-20T07:52:35.000Z</time>
      </trkpt>
      <trkpt lat="48.70814" lon="1.74401">
        <ele>176.60000610352</ele>
        <time>2011-09-20T07:52:41.000Z</time>
      </trkpt>
      <trkpt lat="48.70823" lon="1.74393">
        <ele>176.39999389648</ele>
        <time>2011-09-20T07:52:48.000Z</time>
      </trkpt>
      <trkpt lat="48.7083" lon="1.74386">
        <ele>176.39999389648</ele>
        <time>2011-09-20T07:52:54.000Z</time>
      </trkpt>
      <trkpt lat="48.70837" lon="1.74375">
        <ele>176.39999389648</ele>
        <time>2011-09-20T07:53:02.000Z</time>
      </trkpt>
      <trkpt lat="48.70843" lon="1.74366">
        <ele>176.39999389648</ele>
        <time>2011-09-20T07:53:09.000Z</time>
      </trkpt>
      <trkpt lat="48.70848" lon="1.74358">
        <ele>176.39999389648</ele>
        <time>2011-09-20T07:53:15.000Z</time>
      </trkpt>
      <trkpt lat="48.7085" lon="1.74357">
        <ele>176.39999389648</ele>
        <time>2011-09-20T07:53:16.000Z</time>
      </trkpt>
      <trkpt lat="48.70855" lon="1.74344">
        <ele>176.60000610352</ele>
        <time>2011-09-20T07:53:23.000Z</time>
      </trkpt>
      <trkpt lat="48.70863" lon="1.74332">
        <ele>176.60000610352</ele>
        <time>2011-09-20T07:53:31.000Z</time>
      </trkpt>
      <trkpt lat="48.7087" lon="1.74322">
        <ele>177</ele>
        <time>2011-09-20T07:53:38.000Z</time>
      </trkpt>
      <trkpt lat="48.70874" lon="1.74312">
        <ele>177.39999389648</ele>
        <time>2011-09-20T07:53:44.000Z</time>
      </trkpt>
      <trkpt lat="48.70877" lon="1.74304">
        <ele>177.80000305176</ele>
        <time>2011-09-20T07:53:49.000Z</time>
      </trkpt>
      <trkpt lat="48.70883" lon="1.74292">
        <ele>178.39999389648</ele>
        <time>2011-09-20T07:53:56.000Z</time>
      </trkpt>
      <trkpt lat="48.7089" lon="1.74278">
        <ele>179.19999694824</ele>
        <time>2011-09-20T07:54:04.000Z</time>
      </trkpt>
      <trkpt lat="48.70898" lon="1.74268">
        <ele>179.60000610352</ele>
        <time>2011-09-20T07:54:12.000Z</time>
      </trkpt>
      <trkpt lat="48.70899" lon="1.74267">
        <ele>179.80000305176</ele>
        <time>2011-09-20T07:54:13.000Z</time>
      </trkpt>
      <trkpt lat="48.70904" lon="1.74255">
        <ele>180.39999389648</ele>
        <time>2011-09-20T07:54:21.000Z</time>
      </trkpt>
      <trkpt lat="48.70906" lon="1.74249">
        <ele>180.80000305176</ele>
        <time>2011-09-20T07:54:25.000Z</time>
      </trkpt>
      <trkpt lat="48.70906" lon="1.74241">
        <ele>181</ele>
        <time>2011-09-20T07:54:30.000Z</time>
      </trkpt>
      <trkpt lat="48.70906" lon="1.7424">
        <ele>181</ele>
        <time>2011-09-20T07:54:32.000Z</time>
      </trkpt>
      <trkpt lat="48.70912" lon="1.74227">
        <ele>181.39999389648</ele>
        <time>2011-09-20T07:55:29.000Z</time>
      </trkpt>
      <trkpt lat="48.70916" lon="1.74216">
        <ele>181.80000305176</ele>
        <time>2011-09-20T07:55:35.000Z</time>
      </trkpt>
      <trkpt lat="48.70918" lon="1.74211">
        <ele>181.80000305176</ele>
        <time>2011-09-20T07:55:38.000Z</time>
      </trkpt>
      <trkpt lat="48.70918" lon="1.74207">
        <ele>181.80000305176</ele>
        <time>2011-09-20T07:55:40.000Z</time>
      </trkpt>
      <trkpt lat="48.7092" lon="1.74193">
        <ele>182.19999694824</ele>
        <time>2011-09-20T07:55:47.000Z</time>
      </trkpt>
      <trkpt lat="48.70921" lon="1.74192">
        <ele>182.19999694824</ele>
        <time>2011-09-20T07:55:48.000Z</time>
      </trkpt>
      <trkpt lat="48.70921" lon="1.7418">
        <ele>182.39999389648</ele>
        <time>2011-09-20T07:55:54.000Z</time>
      </trkpt>
      <trkpt lat="48.70924" lon="1.74168">
        <ele>182.60000610352</ele>
        <time>2011-09-20T07:56:00.000Z</time>
      </trkpt>
      <trkpt lat="48.70928" lon="1.74152">
        <ele>182.60000610352</ele>
        <time>2011-09-20T07:56:08.000Z</time>
      </trkpt>
      <trkpt lat="48.70931" lon="1.74143">
        <ele>182.39999389648</ele>
        <time>2011-09-20T07:56:13.000Z</time>
      </trkpt>
      <trkpt lat="48.70935" lon="1.74125">
        <ele>182.39999389648</ele>
        <time>2011-09-20T07:56:21.000Z</time>
      </trkpt>
      <trkpt lat="48.70939" lon="1.74107">
        <ele>182.39999389648</ele>
        <time>2011-09-20T07:56:29.000Z</time>
      </trkpt>
      <trkpt lat="48.70943" lon="1.74092">
        <ele>182.60000610352</ele>
        <time>2011-09-20T07:56:36.000Z</time>
      </trkpt>
      <trkpt lat="48.70946" lon="1.74074">
        <ele>182.60000610352</ele>
        <time>2011-09-20T07:56:45.000Z</time>
      </trkpt>
      <trkpt lat="48.70949" lon="1.74063">
        <ele>182.60000610352</ele>
        <time>2011-09-20T07:56:51.000Z</time>
      </trkpt>
      <trkpt lat="48.70949" lon="1.74061">
        <ele>182.60000610352</ele>
        <time>2011-09-20T07:56:52.000Z</time>
      </trkpt>
      <trkpt lat="48.7095" lon="1.74048">
        <ele>182.39999389648</ele>
        <time>2011-09-20T07:56:58.000Z</time>
      </trkpt>
      <trkpt lat="48.70953" lon="1.74034">
        <ele>182.39999389648</ele>
        <time>2011-09-20T07:57:05.000Z</time>
      </trkpt>
      <trkpt lat="48.70956" lon="1.74026">
        <ele>182.39999389648</ele>
        <time>2011-09-20T07:57:10.000Z</time>
      </trkpt>
      <trkpt lat="48.70964" lon="1.74009">
        <ele>182.39999389648</ele>
        <time>2011-09-20T07:57:19.000Z</time>
      </trkpt>
      <trkpt lat="48.70966" lon="1.73991">
        <ele>182.39999389648</ele>
        <time>2011-09-20T07:57:27.000Z</time>
      </trkpt>
      <trkpt lat="48.7097" lon="1.73969">
        <ele>183</ele>
        <time>2011-09-20T07:57:37.000Z</time>
      </trkpt>
      <trkpt lat="48.70974" lon="1.73949">
        <ele>183.39999389648</ele>
        <time>2011-09-20T07:57:46.000Z</time>
      </trkpt>
      <trkpt lat="48.70978" lon="1.73931">
        <ele>184</ele>
        <time>2011-09-20T07:57:55.000Z</time>
      </trkpt>
      <trkpt lat="48.70982" lon="1.73914">
        <ele>184.39999389648</ele>
        <time>2011-09-20T07:58:03.000Z</time>
      </trkpt>
      <trkpt lat="48.70986" lon="1.73898">
        <ele>184</ele>
        <time>2011-09-20T07:58:11.000Z</time>
      </trkpt>
      <trkpt lat="48.7099" lon="1.7388">
        <ele>183.80000305176</ele>
        <time>2011-09-20T07:58:21.000Z</time>
      </trkpt>
      <trkpt lat="48.70993" lon="1.73864">
        <ele>183.39999389648</ele>
        <time>2011-09-20T07:58:29.000Z</time>
      </trkpt>
      <trkpt lat="48.70995" lon="1.73844">
        <ele>183</ele>
        <time>2011-09-20T07:58:38.000Z</time>
      </trkpt>
      <trkpt lat="48.70999" lon="1.73828">
        <ele>182.80000305176</ele>
        <time>2011-09-20T07:58:46.000Z</time>
      </trkpt>
      <trkpt lat="48.71002" lon="1.73814">
        <ele>182.39999389648</ele>
        <time>2011-09-20T07:58:53.000Z</time>
      </trkpt>
      <trkpt lat="48.71007" lon="1.73807">
        <ele>182.19999694824</ele>
        <time>2011-09-20T07:58:58.000Z</time>
      </trkpt>
      <trkpt lat="48.71011" lon="1.73804">
        <ele>182.19999694824</ele>
        <time>2011-09-20T07:59:01.000Z</time>
      </trkpt>
      <trkpt lat="48.71017" lon="1.73797">
        <ele>182</ele>
        <time>2011-09-20T07:59:06.000Z</time>
      </trkpt>
      <trkpt lat="48.71022" lon="1.73791">
        <ele>182</ele>
        <time>2011-09-20T07:59:11.000Z</time>
      </trkpt>
      <trkpt lat="48.7103" lon="1.73781">
        <ele>182</ele>
        <time>2011-09-20T07:59:18.000Z</time>
      </trkpt>
      <trkpt lat="48.71035" lon="1.73773">
        <ele>182</ele>
        <time>2011-09-20T07:59:23.000Z</time>
      </trkpt>
      <trkpt lat="48.71036" lon="1.73772">
        <ele>182</ele>
        <time>2011-09-20T07:59:24.000Z</time>
      </trkpt>
      <trkpt lat="48.71043" lon="1.73765">
        <ele>182</ele>
        <time>2011-09-20T07:59:30.000Z</time>
      </trkpt>
      <trkpt lat="48.71051" lon="1.73755">
        <ele>182.19999694824</ele>
        <time>2011-09-20T07:59:38.000Z</time>
      </trkpt>
      <trkpt lat="48.71055" lon="1.73752">
        <ele>182.19999694824</ele>
        <time>2011-09-20T07:59:42.000Z</time>
      </trkpt>
      <trkpt lat="48.71063" lon="1.73745">
        <ele>182.19999694824</ele>
        <time>2011-09-20T07:59:48.000Z</time>
      </trkpt>
      <trkpt lat="48.71068" lon="1.73739">
        <ele>182</ele>
        <time>2011-09-20T07:59:53.000Z</time>
      </trkpt>
      <trkpt lat="48.71075" lon="1.73733">
        <ele>182</ele>
        <time>2011-09-20T08:00:00.000Z</time>
      </trkpt>
      <trkpt lat="48.71084" lon="1.73725">
        <ele>181.60000610352</ele>
        <time>2011-09-20T08:00:06.000Z</time>
      </trkpt>
      <trkpt lat="48.71086" lon="1.73723">
        <ele>181.60000610352</ele>
        <time>2011-09-20T08:00:07.000Z</time>
      </trkpt>
      <trkpt lat="48.71092" lon="1.73715">
        <ele>181.39999389648</ele>
        <time>2011-09-20T08:00:13.000Z</time>
      </trkpt>
      <trkpt lat="48.71101" lon="1.73706">
        <ele>181.39999389648</ele>
        <time>2011-09-20T08:00:18.000Z</time>
      </trkpt>
      <trkpt lat="48.71114" lon="1.73695">
        <ele>181.39999389648</ele>
        <time>2011-09-20T08:00:24.000Z</time>
      </trkpt>
      <trkpt lat="48.71131" lon="1.73677">
        <ele>181.39999389648</ele>
        <time>2011-09-20T08:00:31.000Z</time>
      </trkpt>
      <trkpt lat="48.71141" lon="1.73666">
        <ele>181.60000610352</ele>
        <time>2011-09-20T08:00:35.000Z</time>
      </trkpt>
      <trkpt lat="48.71159" lon="1.73649">
        <ele>182</ele>
        <time>2011-09-20T08:00:42.000Z</time>
      </trkpt>
      <trkpt lat="48.71173" lon="1.73638">
        <ele>182</ele>
        <time>2011-09-20T08:00:47.000Z</time>
      </trkpt>
      <trkpt lat="48.71187" lon="1.73623">
        <ele>182</ele>
        <time>2011-09-20T08:00:52.000Z</time>
      </trkpt>
      <trkpt lat="48.71198" lon="1.73606">
        <ele>182</ele>
        <time>2011-09-20T08:00:57.000Z</time>
      </trkpt>
      <trkpt lat="48.71205" lon="1.73604">
        <ele>182.39999389648</ele>
        <time>2011-09-20T08:01:00.000Z</time>
      </trkpt>
      <trkpt lat="48.71215" lon="1.73607">
        <ele>182.80000305176</ele>
        <time>2011-09-20T08:01:05.000Z</time>
      </trkpt>
      <trkpt lat="48.71221" lon="1.73611">
        <ele>183</ele>
        <time>2011-09-20T08:01:09.000Z</time>
      </trkpt>
      <trkpt lat="48.71228" lon="1.73613">
        <ele>183.39999389648</ele>
        <time>2011-09-20T08:01:16.000Z</time>
      </trkpt>
      <trkpt lat="48.71234" lon="1.73614">
        <ele>183.60000610352</ele>
        <time>2011-09-20T08:01:21.000Z</time>
      </trkpt>
      <trkpt lat="48.71237" lon="1.73614">
        <ele>183.60000610352</ele>
        <time>2011-09-20T08:01:24.000Z</time>
      </trkpt>
      <trkpt lat="48.71239" lon="1.73615">
        <ele>183.80000305176</ele>
        <time>2011-09-20T08:01:26.000Z</time>
      </trkpt>
      <trkpt lat="48.7124" lon="1.73616">
        <ele>183.80000305176</ele>
        <time>2011-09-20T08:01:30.000Z</time>
      </trkpt>
      <trkpt lat="48.71248" lon="1.73616">
        <ele>184</ele>
        <time>2011-09-20T08:01:45.000Z</time>
      </trkpt>
      <trkpt lat="48.7126" lon="1.73614">
        <ele>182.39999389648</ele>
        <time>2011-09-20T08:01:52.000Z</time>
      </trkpt>
      <trkpt lat="48.71269" lon="1.73611">
        <ele>181</ele>
        <time>2011-09-20T08:01:59.000Z</time>
      </trkpt>
      <trkpt lat="48.71276" lon="1.73605">
        <ele>180</ele>
        <time>2011-09-20T08:02:05.000Z</time>
      </trkpt>
      <trkpt lat="48.71285" lon="1.73596">
        <ele>178.80000305176</ele>
        <time>2011-09-20T08:02:12.000Z</time>
      </trkpt>
      <trkpt lat="48.71294" lon="1.73583">
        <ele>177.60000610352</ele>
        <time>2011-09-20T08:02:20.000Z</time>
      </trkpt>
      <trkpt lat="48.713" lon="1.73569">
        <ele>177</ele>
        <time>2011-09-20T08:02:27.000Z</time>
      </trkpt>
      <trkpt lat="48.71302" lon="1.73561">
        <ele>176.80000305176</ele>
        <time>2011-09-20T08:02:31.000Z</time>
      </trkpt>
      <trkpt lat="48.71307" lon="1.73544">
        <ele>176.80000305176</ele>
        <time>2011-09-20T08:02:39.000Z</time>
      </trkpt>
      <trkpt lat="48.71313" lon="1.73537">
        <ele>176.39999389648</ele>
        <time>2011-09-20T08:02:45.000Z</time>
      </trkpt>
      <trkpt lat="48.71316" lon="1.73536">
        <ele>176.19999694824</ele>
        <time>2011-09-20T08:02:49.000Z</time>
      </trkpt>
      <trkpt lat="48.71324" lon="1.73529">
        <ele>175.80000305176</ele>
        <time>2011-09-20T08:02:56.000Z</time>
      </trkpt>
      <trkpt lat="48.71326" lon="1.73528">
        <ele>175.60000610352</ele>
        <time>2011-09-20T08:02:58.000Z</time>
      </trkpt>
      <trkpt lat="48.71332" lon="1.73524">
        <ele>175.39999389648</ele>
        <time>2011-09-20T08:03:04.000Z</time>
      </trkpt>
      <trkpt lat="48.71334" lon="1.73524">
        <ele>175</ele>
        <time>2011-09-20T08:03:06.000Z</time>
      </trkpt>
      <trkpt lat="48.71343" lon="1.73534">
        <ele>173.39999389648</ele>
        <time>2011-09-20T08:03:14.000Z</time>
      </trkpt>
      <trkpt lat="48.71351" lon="1.73543">
        <ele>171.80000305176</ele>
        <time>2011-09-20T08:03:23.000Z</time>
      </trkpt>
      <trkpt lat="48.71355" lon="1.73549">
        <ele>170.80000305176</ele>
        <time>2011-09-20T08:03:29.000Z</time>
      </trkpt>
      <trkpt lat="48.71362" lon="1.73557">
        <ele>169.39999389648</ele>
        <time>2011-09-20T08:03:35.000Z</time>
      </trkpt>
      <trkpt lat="48.71374" lon="1.73566">
        <ele>167.60000610352</ele>
        <time>2011-09-20T08:03:43.000Z</time>
      </trkpt>
      <trkpt lat="48.71383" lon="1.73574">
        <ele>166</ele>
        <time>2011-09-20T08:03:50.000Z</time>
      </trkpt>
      <trkpt lat="48.71392" lon="1.73576">
        <ele>165</ele>
        <time>2011-09-20T08:03:56.000Z</time>
      </trkpt>
      <trkpt lat="48.71399" lon="1.73578">
        <ele>164.19999694824</ele>
        <time>2011-09-20T08:04:00.000Z</time>
      </trkpt>
      <trkpt lat="48.71403" lon="1.73573">
        <ele>164</ele>
        <time>2011-09-20T08:04:06.000Z</time>
      </trkpt>
      <trkpt lat="48.71413" lon="1.73568">
        <ele>163</ele>
        <time>2011-09-20T08:04:14.000Z</time>
      </trkpt>
      <trkpt lat="48.71422" lon="1.73565">
        <ele>162.19999694824</ele>
        <time>2011-09-20T08:04:21.000Z</time>
      </trkpt>
      <trkpt lat="48.71432" lon="1.7356">
        <ele>161.39999389648</ele>
        <time>2011-09-20T08:04:29.000Z</time>
      </trkpt>
      <trkpt lat="48.71441" lon="1.73556">
        <ele>160.60000610352</ele>
        <time>2011-09-20T08:04:37.000Z</time>
      </trkpt>
      <trkpt lat="48.71448" lon="1.73555">
        <ele>159.80000305176</ele>
        <time>2011-09-20T08:04:43.000Z</time>
      </trkpt>
      <trkpt lat="48.71456" lon="1.73553">
        <ele>158.80000305176</ele>
        <time>2011-09-20T08:04:50.000Z</time>
      </trkpt>
      <trkpt lat="48.71459" lon="1.73556">
        <ele>158.39999389648</ele>
        <time>2011-09-20T08:04:53.000Z</time>
      </trkpt>
      <trkpt lat="48.71469" lon="1.73556">
        <ele>157.39999389648</ele>
        <time>2011-09-20T08:05:00.000Z</time>
      </trkpt>
      <trkpt lat="48.71484" lon="1.73555">
        <ele>155.60000610352</ele>
        <time>2011-09-20T08:05:10.000Z</time>
      </trkpt>
      <trkpt lat="48.71495" lon="1.73554">
        <ele>154.39999389648</ele>
        <time>2011-09-20T08:05:18.000Z</time>
      </trkpt>
      <trkpt lat="48.71498" lon="1.73553">
        <ele>154</ele>
        <time>2011-09-20T08:05:20.000Z</time>
      </trkpt>
      <trkpt lat="48.7151" lon="1.73551">
        <ele>152.60000610352</ele>
        <time>2011-09-20T08:05:29.000Z</time>
      </trkpt>
      <trkpt lat="48.71521" lon="1.73548">
        <ele>151.39999389648</ele>
        <time>2011-09-20T08:05:36.000Z</time>
      </trkpt>
      <trkpt lat="48.71529" lon="1.73548">
        <ele>150.39999389648</ele>
        <time>2011-09-20T08:05:42.000Z</time>
      </trkpt>
      <trkpt lat="48.71535" lon="1.73546">
        <ele>149.80000305176</ele>
        <time>2011-09-20T08:05:47.000Z</time>
      </trkpt>
      <trkpt lat="48.71548" lon="1.73543">
        <ele>148.19999694824</ele>
        <time>2011-09-20T08:05:55.000Z</time>
      </trkpt>
      <trkpt lat="48.71559" lon="1.73541">
        <ele>147</ele>
        <time>2011-09-20T08:06:02.000Z</time>
      </trkpt>
      <trkpt lat="48.71569" lon="1.73536">
        <ele>145.80000305176</ele>
        <time>2011-09-20T08:06:09.000Z</time>
      </trkpt>
      <trkpt lat="48.71577" lon="1.73533">
        <ele>145</ele>
        <time>2011-09-20T08:06:14.000Z</time>
      </trkpt>
      <trkpt lat="48.71586" lon="1.73531">
        <ele>144.19999694824</ele>
        <time>2011-09-20T08:06:20.000Z</time>
      </trkpt>
      <trkpt lat="48.7159" lon="1.7353">
        <ele>144</ele>
        <time>2011-09-20T08:06:22.000Z</time>
      </trkpt>
      <trkpt lat="48.71597" lon="1.7353">
        <ele>143.60000610352</ele>
        <time>2011-09-20T08:06:27.000Z</time>
      </trkpt>
      <trkpt lat="48.71606" lon="1.73528">
        <ele>143</ele>
        <time>2011-09-20T08:06:33.000Z</time>
      </trkpt>
      <trkpt lat="48.7161" lon="1.73527">
        <ele>142.80000305176</ele>
        <time>2011-09-20T08:06:36.000Z</time>
      </trkpt>
      <trkpt lat="48.71619" lon="1.73525">
        <ele>142.39999389648</ele>
        <time>2011-09-20T08:06:42.000Z</time>
      </trkpt>
      <trkpt lat="48.71632" lon="1.73521">
        <ele>141.60000610352</ele>
        <time>2011-09-20T08:06:51.000Z</time>
      </trkpt>
      <trkpt lat="48.71642" lon="1.7352">
        <ele>141.19999694824</ele>
        <time>2011-09-20T08:06:59.000Z</time>
      </trkpt>
      <trkpt lat="48.71655" lon="1.73517">
        <ele>140.39999389648</ele>
        <time>2011-09-20T08:07:08.000Z</time>
      </trkpt>
      <trkpt lat="48.71669" lon="1.73514">
        <ele>139.80000305176</ele>
        <time>2011-09-20T08:07:17.000Z</time>
      </trkpt>
      <trkpt lat="48.71682" lon="1.73511">
        <ele>139.39999389648</ele>
        <time>2011-09-20T08:07:27.000Z</time>
      </trkpt>
      <trkpt lat="48.71697" lon="1.73507">
        <ele>139</ele>
        <time>2011-09-20T08:07:37.000Z</time>
      </trkpt>
      <trkpt lat="48.71709" lon="1.73506">
        <ele>138.39999389648</ele>
        <time>2011-09-20T08:07:45.000Z</time>
      </trkpt>
      <trkpt lat="48.71725" lon="1.73503">
        <ele>137.80000305176</ele>
        <time>2011-09-20T08:07:55.000Z</time>
      </trkpt>
      <trkpt lat="48.71735" lon="1.73502">
        <ele>137.39999389648</ele>
        <time>2011-09-20T08:08:02.000Z</time>
      </trkpt>
      <trkpt lat="48.71746" lon="1.73501">
        <ele>137</ele>
        <time>2011-09-20T08:08:09.000Z</time>
      </trkpt>
      <trkpt lat="48.71753" lon="1.7349">
        <ele>136.80000305176</ele>
        <time>2011-09-20T08:08:16.000Z</time>
      </trkpt>
      <trkpt lat="48.71754" lon="1.73487">
        <ele>136.80000305176</ele>
        <time>2011-09-20T08:08:18.000Z</time>
      </trkpt>
      <trkpt lat="48.71752" lon="1.73471">
        <ele>136.80000305176</ele>
        <time>2011-09-20T08:08:24.000Z</time>
      </trkpt>
      <trkpt lat="48.71752" lon="1.73471">
        <ele>136.80000305176</ele>
        <time>2011-09-20T08:08:26.000Z</time>
      </trkpt>
      <trkpt lat="48.71751" lon="1.73463">
        <ele>136.80000305176</ele>
        <time>2011-09-20T08:08:34.000Z</time>
      </trkpt>
      <trkpt lat="48.71751" lon="1.73461">
        <ele>136.80000305176</ele>
        <time>2011-09-20T08:08:36.000Z</time>
      </trkpt>
      <trkpt lat="48.71749" lon="1.73454">
        <ele>137</ele>
        <time>2011-09-20T08:08:43.000Z</time>
      </trkpt>
      <trkpt lat="48.71746" lon="1.7344">
        <ele>137</ele>
        <time>2011-09-20T08:08:49.000Z</time>
      </trkpt>
      <trkpt lat="48.71743" lon="1.73426">
        <ele>137.19999694824</ele>
        <time>2011-09-20T08:08:56.000Z</time>
      </trkpt>
      <trkpt lat="48.71741" lon="1.73416">
        <ele>137.19999694824</ele>
        <time>2011-09-20T08:09:01.000Z</time>
      </trkpt>
      <trkpt lat="48.71737" lon="1.73404">
        <ele>137</ele>
        <time>2011-09-20T08:09:07.000Z</time>
      </trkpt>
      <trkpt lat="48.71735" lon="1.73401">
        <ele>137</ele>
        <time>2011-09-20T08:09:09.000Z</time>
      </trkpt>
      <trkpt lat="48.71729" lon="1.73383">
        <ele>136.80000305176</ele>
        <time>2011-09-20T08:09:18.000Z</time>
      </trkpt>
      <trkpt lat="48.71728" lon="1.73381">
        <ele>136.80000305176</ele>
        <time>2011-09-20T08:09:19.000Z</time>
      </trkpt>
      <trkpt lat="48.71726" lon="1.73372">
        <ele>136.80000305176</ele>
        <time>2011-09-20T08:09:24.000Z</time>
      </trkpt>
      <trkpt lat="48.71724" lon="1.73367">
        <ele>136.60000610352</ele>
        <time>2011-09-20T08:09:27.000Z</time>
      </trkpt>
      <trkpt lat="48.71725" lon="1.73364">
        <ele>136.60000610352</ele>
        <time>2011-09-20T08:09:32.000Z</time>
      </trkpt>
      <trkpt lat="48.71723" lon="1.73359">
        <ele>136.39999389648</ele>
        <time>2011-09-20T08:09:39.000Z</time>
      </trkpt>
      <trkpt lat="48.71719" lon="1.7334">
        <ele>136.19999694824</ele>
        <time>2011-09-20T08:09:43.000Z</time>
      </trkpt>
      <trkpt lat="48.71715" lon="1.73317">
        <ele>136</ele>
        <time>2011-09-20T08:09:48.000Z</time>
      </trkpt>
      <trkpt lat="48.71711" lon="1.73292">
        <ele>136</ele>
        <time>2011-09-20T08:09:53.000Z</time>
      </trkpt>
      <trkpt lat="48.71704" lon="1.7326">
        <ele>136.19999694824</ele>
        <time>2011-09-20T08:10:00.000Z</time>
      </trkpt>
      <trkpt lat="48.71701" lon="1.73226">
        <ele>136</ele>
        <time>2011-09-20T08:10:07.000Z</time>
      </trkpt>
      <trkpt lat="48.71696" lon="1.73191">
        <ele>136</ele>
        <time>2011-09-20T08:10:14.000Z</time>
      </trkpt>
      <trkpt lat="48.71692" lon="1.73161">
        <ele>136.19999694824</ele>
        <time>2011-09-20T08:10:20.000Z</time>
      </trkpt>
      <trkpt lat="48.71687" lon="1.73135">
        <ele>136.80000305176</ele>
        <time>2011-09-20T08:10:25.000Z</time>
      </trkpt>
      <trkpt lat="48.71683" lon="1.73105">
        <ele>137.60000610352</ele>
        <time>2011-09-20T08:10:31.000Z</time>
      </trkpt>
      <trkpt lat="48.71678" lon="1.73079">
        <ele>138.19999694824</ele>
        <time>2011-09-20T08:10:36.000Z</time>
      </trkpt>
      <trkpt lat="48.71673" lon="1.73039">
        <ele>138</ele>
        <time>2011-09-20T08:10:44.000Z</time>
      </trkpt>
      <trkpt lat="48.71669" lon="1.73012">
        <ele>138</ele>
        <time>2011-09-20T08:10:49.000Z</time>
      </trkpt>
      <trkpt lat="48.71664" lon="1.72989">
        <ele>138</ele>
        <time>2011-09-20T08:10:54.000Z</time>
      </trkpt>
      <trkpt lat="48.71653" lon="1.72959">
        <ele>138</ele>
        <time>2011-09-20T08:11:00.000Z</time>
      </trkpt>
      <trkpt lat="48.7164" lon="1.72927">
        <ele>138.39999389648</ele>
        <time>2011-09-20T08:11:07.000Z</time>
      </trkpt>
      <trkpt lat="48.71633" lon="1.72912">
        <ele>138.39999389648</ele>
        <time>2011-09-20T08:11:11.000Z</time>
      </trkpt>
      <trkpt lat="48.71618" lon="1.72881">
        <ele>139</ele>
        <time>2011-09-20T08:11:18.000Z</time>
      </trkpt>
      <trkpt lat="48.71601" lon="1.72844">
        <ele>139.39999389648</ele>
        <time>2011-09-20T08:11:26.000Z</time>
      </trkpt>
      <trkpt lat="48.71585" lon="1.72811">
        <ele>140</ele>
        <time>2011-09-20T08:11:33.000Z</time>
      </trkpt>
      <trkpt lat="48.71573" lon="1.72785">
        <ele>141.19999694824</ele>
        <time>2011-09-20T08:11:39.000Z</time>
      </trkpt>
      <trkpt lat="48.71563" lon="1.72762">
        <ele>142</ele>
        <time>2011-09-20T08:11:45.000Z</time>
      </trkpt>
      <trkpt lat="48.7155" lon="1.72736">
        <ele>142.60000610352</ele>
        <time>2011-09-20T08:11:51.000Z</time>
      </trkpt>
      <trkpt lat="48.71536" lon="1.72705">
        <ele>143</ele>
        <time>2011-09-20T08:11:58.000Z</time>
      </trkpt>
      <trkpt lat="48.71524" lon="1.72671">
        <ele>142.80000305176</ele>
        <time>2011-09-20T08:12:05.000Z</time>
      </trkpt>
      <trkpt lat="48.71516" lon="1.72642">
        <ele>142.60000610352</ele>
        <time>2011-09-20T08:12:11.000Z</time>
      </trkpt>
      <trkpt lat="48.71508" lon="1.72612">
        <ele>142.19999694824</ele>
        <time>2011-09-20T08:12:17.000Z</time>
      </trkpt>
      <trkpt lat="48.71503" lon="1.72579">
        <ele>141.80000305176</ele>
        <time>2011-09-20T08:12:23.000Z</time>
      </trkpt>
      <trkpt lat="48.71499" lon="1.72549">
        <ele>141.60000610352</ele>
        <time>2011-09-20T08:12:29.000Z</time>
      </trkpt>
      <trkpt lat="48.71497" lon="1.72523">
        <ele>141.39999389648</ele>
        <time>2011-09-20T08:12:34.000Z</time>
      </trkpt>
      <trkpt lat="48.71496" lon="1.72502">
        <ele>141.19999694824</ele>
        <time>2011-09-20T08:12:38.000Z</time>
      </trkpt>
      <trkpt lat="48.71492" lon="1.72475">
        <ele>140.80000305176</ele>
        <time>2011-09-20T08:12:43.000Z</time>
      </trkpt>
      <trkpt lat="48.71491" lon="1.72444">
        <ele>140.19999694824</ele>
        <time>2011-09-20T08:12:49.000Z</time>
      </trkpt>
      <trkpt lat="48.71488" lon="1.72414">
        <ele>139.60000610352</ele>
        <time>2011-09-20T08:12:55.000Z</time>
      </trkpt>
      <trkpt lat="48.71487" lon="1.7238">
        <ele>139.19999694824</ele>
        <time>2011-09-20T08:13:01.000Z</time>
      </trkpt>
      <trkpt lat="48.7149" lon="1.72355">
        <ele>138.80000305176</ele>
        <time>2011-09-20T08:13:06.000Z</time>
      </trkpt>
      <trkpt lat="48.71491" lon="1.72327">
        <ele>138.39999389648</ele>
        <time>2011-09-20T08:13:11.000Z</time>
      </trkpt>
      <trkpt lat="48.71487" lon="1.72281">
        <ele>138.19999694824</ele>
        <time>2011-09-20T08:13:19.000Z</time>
      </trkpt>
      <trkpt lat="48.71478" lon="1.72247">
        <ele>138.60000610352</ele>
        <time>2011-09-20T08:13:25.000Z</time>
      </trkpt>
      <trkpt lat="48.71465" lon="1.72213">
        <ele>140.39999389648</ele>
        <time>2011-09-20T08:13:32.000Z</time>
      </trkpt>
      <trkpt lat="48.71453" lon="1.72187">
        <ele>142.19999694824</ele>
        <time>2011-09-20T08:13:38.000Z</time>
      </trkpt>
      <trkpt lat="48.7144" lon="1.72177">
        <ele>144</ele>
        <time>2011-09-20T08:13:43.000Z</time>
      </trkpt>
      <trkpt lat="48.7143" lon="1.72156">
        <ele>145</ele>
        <time>2011-09-20T08:13:48.000Z</time>
      </trkpt>
      <trkpt lat="48.71428" lon="1.72138">
        <ele>144.60000610352</ele>
        <time>2011-09-20T08:13:52.000Z</time>
      </trkpt>
      <trkpt lat="48.71422" lon="1.72114">
        <ele>144</ele>
        <time>2011-09-20T08:13:57.000Z</time>
      </trkpt>
      <trkpt lat="48.71416" lon="1.72088">
        <ele>143.19999694824</ele>
        <time>2011-09-20T08:14:02.000Z</time>
      </trkpt>
      <trkpt lat="48.71409" lon="1.72065">
        <ele>144</ele>
        <time>2011-09-20T08:14:07.000Z</time>
      </trkpt>
      <trkpt lat="48.71393" lon="1.72037">
        <ele>145.39999389648</ele>
        <time>2011-09-20T08:14:14.000Z</time>
      </trkpt>
      <trkpt lat="48.71377" lon="1.7202">
        <ele>146.19999694824</ele>
        <time>2011-09-20T08:14:20.000Z</time>
      </trkpt>
      <trkpt lat="48.71361" lon="1.72008">
        <ele>146.39999389648</ele>
        <time>2011-09-20T08:14:25.000Z</time>
      </trkpt>
      <trkpt lat="48.71349" lon="1.71994">
        <ele>146.60000610352</ele>
        <time>2011-09-20T08:14:30.000Z</time>
      </trkpt>
      <trkpt lat="48.71338" lon="1.71979">
        <ele>147.19999694824</ele>
        <time>2011-09-20T08:14:34.000Z</time>
      </trkpt>
      <trkpt lat="48.71324" lon="1.71966">
        <ele>148.80000305176</ele>
        <time>2011-09-20T08:14:38.000Z</time>
      </trkpt>
      <trkpt lat="48.71314" lon="1.71951">
        <ele>150.19999694824</ele>
        <time>2011-09-20T08:14:42.000Z</time>
      </trkpt>
      <trkpt lat="48.71311" lon="1.71917">
        <ele>151.19999694824</ele>
        <time>2011-09-20T08:14:48.000Z</time>
      </trkpt>
      <trkpt lat="48.71316" lon="1.7189">
        <ele>151.19999694824</ele>
        <time>2011-09-20T08:14:53.000Z</time>
      </trkpt>
      <trkpt lat="48.71322" lon="1.71861">
        <ele>150.80000305176</ele>
        <time>2011-09-20T08:14:59.000Z</time>
      </trkpt>
      <trkpt lat="48.71328" lon="1.71839">
        <ele>150.39999389648</ele>
        <time>2011-09-20T08:15:04.000Z</time>
      </trkpt>
      <trkpt lat="48.71328" lon="1.71818">
        <ele>150</ele>
        <time>2011-09-20T08:15:09.000Z</time>
      </trkpt>
      <trkpt lat="48.71325" lon="1.71785">
        <ele>149</ele>
        <time>2011-09-20T08:15:16.000Z</time>
      </trkpt>
      <trkpt lat="48.71321" lon="1.71744">
        <ele>147.80000305176</ele>
        <time>2011-09-20T08:15:24.000Z</time>
      </trkpt>
      <trkpt lat="48.7132" lon="1.71707">
        <ele>147.19999694824</ele>
        <time>2011-09-20T08:15:31.000Z</time>
      </trkpt>
      <trkpt lat="48.7132" lon="1.71676">
        <ele>146.80000305176</ele>
        <time>2011-09-20T08:15:37.000Z</time>
      </trkpt>
      <trkpt lat="48.71317" lon="1.71629">
        <ele>145.39999389648</ele>
        <time>2011-09-20T08:15:46.000Z</time>
      </trkpt>
      <trkpt lat="48.71317" lon="1.71596">
        <ele>144.39999389648</ele>
        <time>2011-09-20T08:15:52.000Z</time>
      </trkpt>
      <trkpt lat="48.71317" lon="1.71563">
        <ele>143.60000610352</ele>
        <time>2011-09-20T08:15:58.000Z</time>
      </trkpt>
      <trkpt lat="48.71314" lon="1.71518">
        <ele>143</ele>
        <time>2011-09-20T08:16:06.000Z</time>
      </trkpt>
      <trkpt lat="48.71315" lon="1.71486">
        <ele>142.60000610352</ele>
        <time>2011-09-20T08:16:12.000Z</time>
      </trkpt>
      <trkpt lat="48.71311" lon="1.71465">
        <ele>142.60000610352</ele>
        <time>2011-09-20T08:16:16.000Z</time>
      </trkpt>
      <trkpt lat="48.71302" lon="1.71432">
        <ele>143</ele>
        <time>2011-09-20T08:16:22.000Z</time>
      </trkpt>
      <trkpt lat="48.71297" lon="1.7139">
        <ele>142.60000610352</ele>
        <time>2011-09-20T08:16:29.000Z</time>
      </trkpt>
      <trkpt lat="48.71292" lon="1.71356">
        <ele>142.19999694824</ele>
        <time>2011-09-20T08:16:35.000Z</time>
      </trkpt>
      <trkpt lat="48.71285" lon="1.71323">
        <ele>142</ele>
        <time>2011-09-20T08:16:41.000Z</time>
      </trkpt>
      <trkpt lat="48.71278" lon="1.71284">
        <ele>141.80000305176</ele>
        <time>2011-09-20T08:16:48.000Z</time>
      </trkpt>
      <trkpt lat="48.71273" lon="1.71249">
        <ele>141.39999389648</ele>
        <time>2011-09-20T08:16:54.000Z</time>
      </trkpt>
      <trkpt lat="48.71274" lon="1.71212">
        <ele>141.19999694824</ele>
        <time>2011-09-20T08:17:00.000Z</time>
      </trkpt>
      <trkpt lat="48.71276" lon="1.7119">
        <ele>141</ele>
        <time>2011-09-20T08:17:05.000Z</time>
      </trkpt>
      <trkpt lat="48.71273" lon="1.71175">
        <ele>141</ele>
        <time>2011-09-20T08:17:10.000Z</time>
      </trkpt>
      <trkpt lat="48.71268" lon="1.71149">
        <ele>141.19999694824</ele>
        <time>2011-09-20T08:17:15.000Z</time>
      </trkpt>
      <trkpt lat="48.71257" lon="1.7111">
        <ele>141.80000305176</ele>
        <time>2011-09-20T08:17:23.000Z</time>
      </trkpt>
      <trkpt lat="48.71244" lon="1.71083">
        <ele>142.39999389648</ele>
        <time>2011-09-20T08:17:29.000Z</time>
      </trkpt>
      <trkpt lat="48.7123" lon="1.71055">
        <ele>144</ele>
        <time>2011-09-20T08:17:36.000Z</time>
      </trkpt>
      <trkpt lat="48.71214" lon="1.71014">
        <ele>145</ele>
        <time>2011-09-20T08:17:45.000Z</time>
      </trkpt>
      <trkpt lat="48.71211" lon="1.70987">
        <ele>145.39999389648</ele>
        <time>2011-09-20T08:17:50.000Z</time>
      </trkpt>
      <trkpt lat="48.71207" lon="1.70958">
        <ele>146.19999694824</ele>
        <time>2011-09-20T08:17:55.000Z</time>
      </trkpt>
      <trkpt lat="48.71206" lon="1.70923">
        <ele>147</ele>
        <time>2011-09-20T08:18:01.000Z</time>
      </trkpt>
      <trkpt lat="48.71206" lon="1.70917">
        <ele>147.19999694824</ele>
        <time>2011-09-20T08:18:02.000Z</time>
      </trkpt>
      <trkpt lat="48.71207" lon="1.70884">
        <ele>148.60000610352</ele>
        <time>2011-09-20T08:18:08.000Z</time>
      </trkpt>
      <trkpt lat="48.71215" lon="1.70851">
        <ele>149.39999389648</ele>
        <time>2011-09-20T08:18:14.000Z</time>
      </trkpt>
      <trkpt lat="48.7122" lon="1.70829">
        <ele>149.80000305176</ele>
        <time>2011-09-20T08:18:18.000Z</time>
      </trkpt>
      <trkpt lat="48.71222" lon="1.70806">
        <ele>149.39999389648</ele>
        <time>2011-09-20T08:18:22.000Z</time>
      </trkpt>
      <trkpt lat="48.71218" lon="1.70779">
        <ele>149.39999389648</ele>
        <time>2011-09-20T08:18:27.000Z</time>
      </trkpt>
      <trkpt lat="48.71218" lon="1.7074">
        <ele>149.19999694824</ele>
        <time>2011-09-20T08:18:34.000Z</time>
      </trkpt>
      <trkpt lat="48.71221" lon="1.70699">
        <ele>149</ele>
        <time>2011-09-20T08:18:41.000Z</time>
      </trkpt>
      <trkpt lat="48.71223" lon="1.70671">
        <ele>148.80000305176</ele>
        <time>2011-09-20T08:18:46.000Z</time>
      </trkpt>
      <trkpt lat="48.7122" lon="1.70634">
        <ele>148.80000305176</ele>
        <time>2011-09-20T08:18:53.000Z</time>
      </trkpt>
      <trkpt lat="48.71215" lon="1.70596">
        <ele>149</ele>
        <time>2011-09-20T08:19:01.000Z</time>
      </trkpt>
      <trkpt lat="48.71204" lon="1.70567">
        <ele>149.19999694824</ele>
        <time>2011-09-20T08:19:07.000Z</time>
      </trkpt>
      <trkpt lat="48.71193" lon="1.70532">
        <ele>148.80000305176</ele>
        <time>2011-09-20T08:19:14.000Z</time>
      </trkpt>
      <trkpt lat="48.7119" lon="1.70507">
        <ele>148.19999694824</ele>
        <time>2011-09-20T08:19:19.000Z</time>
      </trkpt>
      <trkpt lat="48.71185" lon="1.70483">
        <ele>147.60000610352</ele>
        <time>2011-09-20T08:19:24.000Z</time>
      </trkpt>
      <trkpt lat="48.71174" lon="1.70457">
        <ele>146.80000305176</ele>
        <time>2011-09-20T08:19:30.000Z</time>
      </trkpt>
      <trkpt lat="48.71168" lon="1.70436">
        <ele>146</ele>
        <time>2011-09-20T08:19:34.000Z</time>
      </trkpt>
      <trkpt lat="48.71159" lon="1.70409">
        <ele>144.80000305176</ele>
        <time>2011-09-20T08:19:39.000Z</time>
      </trkpt>
      <trkpt lat="48.71157" lon="1.70383">
        <ele>145</ele>
        <time>2011-09-20T08:19:43.000Z</time>
      </trkpt>
      <trkpt lat="48.71158" lon="1.70365">
        <ele>145.19999694824</ele>
        <time>2011-09-20T08:19:46.000Z</time>
      </trkpt>
      <trkpt lat="48.71161" lon="1.70332">
        <ele>145.19999694824</ele>
        <time>2011-09-20T08:19:52.000Z</time>
      </trkpt>
      <trkpt lat="48.71161" lon="1.70316">
        <ele>145.60000610352</ele>
        <time>2011-09-20T08:19:55.000Z</time>
      </trkpt>
      <trkpt lat="48.71163" lon="1.70296">
        <ele>146</ele>
        <time>2011-09-20T08:19:59.000Z</time>
      </trkpt>
      <trkpt lat="48.71175" lon="1.7026">
        <ele>145.80000305176</ele>
        <time>2011-09-20T08:20:06.000Z</time>
      </trkpt>
      <trkpt lat="48.71184" lon="1.70237">
        <ele>145</ele>
        <time>2011-09-20T08:20:11.000Z</time>
      </trkpt>
      <trkpt lat="48.71191" lon="1.7021">
        <ele>144.39999389648</ele>
        <time>2011-09-20T08:20:16.000Z</time>
      </trkpt>
      <trkpt lat="48.71198" lon="1.70178">
        <ele>143.80000305176</ele>
        <time>2011-09-20T08:20:21.000Z</time>
      </trkpt>
      <trkpt lat="48.71199" lon="1.70159">
        <ele>144</ele>
        <time>2011-09-20T08:20:24.000Z</time>
      </trkpt>
      <trkpt lat="48.7121" lon="1.70112">
        <ele>144.39999389648</ele>
        <time>2011-09-20T08:20:32.000Z</time>
      </trkpt>
      <trkpt lat="48.71214" lon="1.70089">
        <ele>144.80000305176</ele>
        <time>2011-09-20T08:20:36.000Z</time>
      </trkpt>
      <trkpt lat="48.71221" lon="1.70051">
        <ele>145.19999694824</ele>
        <time>2011-09-20T08:20:43.000Z</time>
      </trkpt>
      <trkpt lat="48.71226" lon="1.70024">
        <ele>145.60000610352</ele>
        <time>2011-09-20T08:20:48.000Z</time>
      </trkpt>
      <trkpt lat="48.71233" lon="1.69998">
        <ele>146</ele>
        <time>2011-09-20T08:20:53.000Z</time>
      </trkpt>
      <trkpt lat="48.71238" lon="1.69972">
        <ele>146</ele>
        <time>2011-09-20T08:20:58.000Z</time>
      </trkpt>
      <trkpt lat="48.71235" lon="1.69945">
        <ele>146.39999389648</ele>
        <time>2011-09-20T08:21:03.000Z</time>
      </trkpt>
      <trkpt lat="48.71235" lon="1.69915">
        <ele>146.60000610352</ele>
        <time>2011-09-20T08:21:08.000Z</time>
      </trkpt>
      <trkpt lat="48.71237" lon="1.69886">
        <ele>146.80000305176</ele>
        <time>2011-09-20T08:21:13.000Z</time>
      </trkpt>
      <trkpt lat="48.71239" lon="1.69856">
        <ele>147</ele>
        <time>2011-09-20T08:21:18.000Z</time>
      </trkpt>
      <trkpt lat="48.71241" lon="1.69821">
        <ele>147.19999694824</ele>
        <time>2011-09-20T08:21:24.000Z</time>
      </trkpt>
      <trkpt lat="48.71247" lon="1.69787">
        <ele>147.60000610352</ele>
        <time>2011-09-20T08:21:30.000Z</time>
      </trkpt>
      <trkpt lat="48.71253" lon="1.69759">
        <ele>147.60000610352</ele>
        <time>2011-09-20T08:21:35.000Z</time>
      </trkpt>
      <trkpt lat="48.71257" lon="1.69733">
        <ele>148.19999694824</ele>
        <time>2011-09-20T08:21:40.000Z</time>
      </trkpt>
      <trkpt lat="48.7126" lon="1.6971">
        <ele>149</ele>
        <time>2011-09-20T08:21:45.000Z</time>
      </trkpt>
      <trkpt lat="48.71261" lon="1.697">
        <ele>149.39999389648</ele>
        <time>2011-09-20T08:21:49.000Z</time>
      </trkpt>
      <trkpt lat="48.71262" lon="1.6969">
        <ele>149.60000610352</ele>
        <time>2011-09-20T08:21:53.000Z</time>
      </trkpt>
      <trkpt lat="48.71264" lon="1.69677">
        <ele>150</ele>
        <time>2011-09-20T08:21:59.000Z</time>
      </trkpt>
      <trkpt lat="48.71267" lon="1.69665">
        <ele>150.39999389648</ele>
        <time>2011-09-20T08:22:05.000Z</time>
      </trkpt>
      <trkpt lat="48.7127" lon="1.69655">
        <ele>150.60000610352</ele>
        <time>2011-09-20T08:22:10.000Z</time>
      </trkpt>
      <trkpt lat="48.71273" lon="1.69645">
        <ele>150.80000305176</ele>
        <time>2011-09-20T08:22:15.000Z</time>
      </trkpt>
      <trkpt lat="48.71277" lon="1.69633">
        <ele>151</ele>
        <time>2011-09-20T08:22:21.000Z</time>
      </trkpt>
      <trkpt lat="48.71277" lon="1.69614">
        <ele>151.39999389648</ele>
        <time>2011-09-20T08:22:28.000Z</time>
      </trkpt>
      <trkpt lat="48.71278" lon="1.696">
        <ele>151.80000305176</ele>
        <time>2011-09-20T08:22:34.000Z</time>
      </trkpt>
      <trkpt lat="48.71278" lon="1.69587">
        <ele>152.19999694824</ele>
        <time>2011-09-20T08:22:40.000Z</time>
      </trkpt>
      <trkpt lat="48.71278" lon="1.69573">
        <ele>151.80000305176</ele>
        <time>2011-09-20T08:22:46.000Z</time>
      </trkpt>
      <trkpt lat="48.71278" lon="1.69568">
        <ele>151.80000305176</ele>
        <time>2011-09-20T08:22:48.000Z</time>
      </trkpt>
      <trkpt lat="48.71281" lon="1.69557">
        <ele>151.19999694824</ele>
        <time>2011-09-20T08:22:54.000Z</time>
      </trkpt>
      <trkpt lat="48.71282" lon="1.69545">
        <ele>150.80000305176</ele>
        <time>2011-09-20T08:22:59.000Z</time>
      </trkpt>
      <trkpt lat="48.71283" lon="1.6954">
        <ele>150.60000610352</ele>
        <time>2011-09-20T08:23:01.000Z</time>
      </trkpt>
      <trkpt lat="48.71287" lon="1.69521">
        <ele>149.60000610352</ele>
        <time>2011-09-20T08:23:10.000Z</time>
      </trkpt>
      <trkpt lat="48.71288" lon="1.69511">
        <ele>149</ele>
        <time>2011-09-20T08:23:14.000Z</time>
      </trkpt>
      <trkpt lat="48.71291" lon="1.69503">
        <ele>148.60000610352</ele>
        <time>2011-09-20T08:23:18.000Z</time>
      </trkpt>
      <trkpt lat="48.71296" lon="1.69488">
        <ele>147.19999694824</ele>
        <time>2011-09-20T08:23:24.000Z</time>
      </trkpt>
      <trkpt lat="48.71299" lon="1.69479">
        <ele>146.60000610352</ele>
        <time>2011-09-20T08:23:28.000Z</time>
      </trkpt>
      <trkpt lat="48.71299" lon="1.69462">
        <ele>145.39999389648</ele>
        <time>2011-09-20T08:23:35.000Z</time>
      </trkpt>
      <trkpt lat="48.71301" lon="1.69449">
        <ele>144.39999389648</ele>
        <time>2011-09-20T08:23:40.000Z</time>
      </trkpt>
      <trkpt lat="48.71304" lon="1.69436">
        <ele>143.39999389648</ele>
        <time>2011-09-20T08:23:45.000Z</time>
      </trkpt>
      <trkpt lat="48.71304" lon="1.69423">
        <ele>142.80000305176</ele>
        <time>2011-09-20T08:23:50.000Z</time>
      </trkpt>
      <trkpt lat="48.71306" lon="1.69414">
        <ele>142.19999694824</ele>
        <time>2011-09-20T08:23:54.000Z</time>
      </trkpt>
      <trkpt lat="48.7131" lon="1.69392">
        <ele>141.19999694824</ele>
        <time>2011-09-20T08:24:03.000Z</time>
      </trkpt>
      <trkpt lat="48.7131" lon="1.6939">
        <ele>141</ele>
        <time>2011-09-20T08:24:04.000Z</time>
      </trkpt>
      <trkpt lat="48.71313" lon="1.69374">
        <ele>140.39999389648</ele>
        <time>2011-09-20T08:24:11.000Z</time>
      </trkpt>
      <trkpt lat="48.71314" lon="1.69372">
        <ele>140.19999694824</ele>
        <time>2011-09-20T08:24:15.000Z</time>
      </trkpt>
      <trkpt lat="48.71315" lon="1.69367">
        <ele>139.80000305176</ele>
        <time>2011-09-20T08:24:22.000Z</time>
      </trkpt>
      <trkpt lat="48.71317" lon="1.69352">
        <ele>139.19999694824</ele>
        <time>2011-09-20T08:24:27.000Z</time>
      </trkpt>
      <trkpt lat="48.71317" lon="1.6934">
        <ele>138.80000305176</ele>
        <time>2011-09-20T08:24:33.000Z</time>
      </trkpt>
      <trkpt lat="48.71317" lon="1.6934">
        <ele>138.60000610352</ele>
        <time>2011-09-20T08:24:35.000Z</time>
      </trkpt>
      <trkpt lat="48.7132" lon="1.6933">
        <ele>138.19999694824</ele>
        <time>2011-09-20T08:24:51.000Z</time>
      </trkpt>
      <trkpt lat="48.71321" lon="1.69318">
        <ele>138.39999389648</ele>
        <time>2011-09-20T08:24:56.000Z</time>
      </trkpt>
      <trkpt lat="48.71325" lon="1.69307">
        <ele>138.19999694824</ele>
        <time>2011-09-20T08:25:02.000Z</time>
      </trkpt>
      <trkpt lat="48.71326" lon="1.69305">
        <ele>138.19999694824</ele>
        <time>2011-09-20T08:25:03.000Z</time>
      </trkpt>
      <trkpt lat="48.71328" lon="1.69288">
        <ele>138.39999389648</ele>
        <time>2011-09-20T08:25:11.000Z</time>
      </trkpt>
      <trkpt lat="48.71329" lon="1.69277">
        <ele>138.60000610352</ele>
        <time>2011-09-20T08:25:17.000Z</time>
      </trkpt>
      <trkpt lat="48.71331" lon="1.69266">
        <ele>138.60000610352</ele>
        <time>2011-09-20T08:25:22.000Z</time>
      </trkpt>
      <trkpt lat="48.71332" lon="1.69251">
        <ele>139</ele>
        <time>2011-09-20T08:25:28.000Z</time>
      </trkpt>
      <trkpt lat="48.71332" lon="1.69246">
        <ele>138.80000305176</ele>
        <time>2011-09-20T08:25:30.000Z</time>
      </trkpt>
      <trkpt lat="48.71334" lon="1.69222">
        <ele>138.19999694824</ele>
        <time>2011-09-20T08:25:39.000Z</time>
      </trkpt>
      <trkpt lat="48.71336" lon="1.69211">
        <ele>137.80000305176</ele>
        <time>2011-09-20T08:25:44.000Z</time>
      </trkpt>
      <trkpt lat="48.71332" lon="1.69199">
        <ele>137.80000305176</ele>
        <time>2011-09-20T08:25:50.000Z</time>
      </trkpt>
      <trkpt lat="48.71332" lon="1.6919">
        <ele>137.60000610352</ele>
        <time>2011-09-20T08:25:55.000Z</time>
      </trkpt>
      <trkpt lat="48.71336" lon="1.69178">
        <ele>137</ele>
        <time>2011-09-20T08:26:01.000Z</time>
      </trkpt>
      <trkpt lat="48.71338" lon="1.69163">
        <ele>137</ele>
        <time>2011-09-20T08:26:07.000Z</time>
      </trkpt>
      <trkpt lat="48.71343" lon="1.6914">
        <ele>138.19999694824</ele>
        <time>2011-09-20T08:26:17.000Z</time>
      </trkpt>
      <trkpt lat="48.71345" lon="1.69135">
        <ele>138.39999389648</ele>
        <time>2011-09-20T08:26:21.000Z</time>
      </trkpt>
      <trkpt lat="48.71347" lon="1.69122">
        <ele>139</ele>
        <time>2011-09-20T08:26:28.000Z</time>
      </trkpt>
      <trkpt lat="48.71349" lon="1.69115">
        <ele>139.39999389648</ele>
        <time>2011-09-20T08:26:33.000Z</time>
      </trkpt>
      <trkpt lat="48.71355" lon="1.69106">
        <ele>139.39999389648</ele>
        <time>2011-09-20T08:26:39.000Z</time>
      </trkpt>
      <trkpt lat="48.71358" lon="1.69097">
        <ele>139.80000305176</ele>
        <time>2011-09-20T08:26:44.000Z</time>
      </trkpt>
      <trkpt lat="48.7136" lon="1.69087">
        <ele>140.19999694824</ele>
        <time>2011-09-20T08:26:50.000Z</time>
      </trkpt>
      <trkpt lat="48.71362" lon="1.69079">
        <ele>140.39999389648</ele>
        <time>2011-09-20T08:26:55.000Z</time>
      </trkpt>
      <trkpt lat="48.71365" lon="1.69067">
        <ele>140.60000610352</ele>
        <time>2011-09-20T08:27:01.000Z</time>
      </trkpt>
      <trkpt lat="48.71371" lon="1.69056">
        <ele>140.39999389648</ele>
        <time>2011-09-20T08:27:07.000Z</time>
      </trkpt>
      <trkpt lat="48.71378" lon="1.69045">
        <ele>140.19999694824</ele>
        <time>2011-09-20T08:27:14.000Z</time>
      </trkpt>
      <trkpt lat="48.71387" lon="1.69029">
        <ele>139.80000305176</ele>
        <time>2011-09-20T08:27:23.000Z</time>
      </trkpt>
      <trkpt lat="48.71397" lon="1.6901">
        <ele>139.19999694824</ele>
        <time>2011-09-20T08:27:33.000Z</time>
      </trkpt>
      <trkpt lat="48.71404" lon="1.68995">
        <ele>138.80000305176</ele>
        <time>2011-09-20T08:27:41.000Z</time>
      </trkpt>
      <trkpt lat="48.71411" lon="1.68981">
        <ele>138.39999389648</ele>
        <time>2011-09-20T08:27:49.000Z</time>
      </trkpt>
      <trkpt lat="48.71418" lon="1.68972">
        <ele>137.80000305176</ele>
        <time>2011-09-20T08:27:55.000Z</time>
      </trkpt>
      <trkpt lat="48.71421" lon="1.68959">
        <ele>138</ele>
        <time>2011-09-20T08:28:01.000Z</time>
      </trkpt>
      <trkpt lat="48.71426" lon="1.68947">
        <ele>137.80000305176</ele>
        <time>2011-09-20T08:28:07.000Z</time>
      </trkpt>
      <trkpt lat="48.71428" lon="1.68943">
        <ele>137.80000305176</ele>
        <time>2011-09-20T08:28:09.000Z</time>
      </trkpt>
      <trkpt lat="48.71428" lon="1.68936">
        <ele>138</ele>
        <time>2011-09-20T08:28:15.000Z</time>
      </trkpt>
      <trkpt lat="48.71432" lon="1.68928">
        <ele>138</ele>
        <time>2011-09-20T08:28:25.000Z</time>
      </trkpt>
      <trkpt lat="48.71433" lon="1.68925">
        <ele>138</ele>
        <time>2011-09-20T08:28:26.000Z</time>
      </trkpt>
      <trkpt lat="48.71431" lon="1.68918">
        <ele>138.19999694824</ele>
        <time>2011-09-20T08:28:30.000Z</time>
      </trkpt>
      <trkpt lat="48.71425" lon="1.68902">
        <ele>139.60000610352</ele>
        <time>2011-09-20T08:28:37.000Z</time>
      </trkpt>
      <trkpt lat="48.71418" lon="1.6888">
        <ele>141</ele>
        <time>2011-09-20T08:28:42.000Z</time>
      </trkpt>
      <trkpt lat="48.7141" lon="1.68857">
        <ele>143</ele>
        <time>2011-09-20T08:28:47.000Z</time>
      </trkpt>
      <trkpt lat="48.71404" lon="1.68841">
        <ele>144.39999389648</ele>
        <time>2011-09-20T08:28:51.000Z</time>
      </trkpt>
      <trkpt lat="48.71396" lon="1.6882">
        <ele>146.19999694824</ele>
        <time>2011-09-20T08:28:56.000Z</time>
      </trkpt>
      <trkpt lat="48.7139" lon="1.688">
        <ele>147.39999389648</ele>
        <time>2011-09-20T08:29:00.000Z</time>
      </trkpt>
      <trkpt lat="48.71383" lon="1.68777">
        <ele>149</ele>
        <time>2011-09-20T08:29:05.000Z</time>
      </trkpt>
      <trkpt lat="48.71374" lon="1.68747">
        <ele>150.39999389648</ele>
        <time>2011-09-20T08:29:11.000Z</time>
      </trkpt>
      <trkpt lat="48.71363" lon="1.68723">
        <ele>151.19999694824</ele>
        <time>2011-09-20T08:29:16.000Z</time>
      </trkpt>
      <trkpt lat="48.71352" lon="1.687">
        <ele>152.19999694824</ele>
        <time>2011-09-20T08:29:21.000Z</time>
      </trkpt>
      <trkpt lat="48.71342" lon="1.68672">
        <ele>153.19999694824</ele>
        <time>2011-09-20T08:29:27.000Z</time>
      </trkpt>
      <trkpt lat="48.71332" lon="1.68642">
        <ele>153.39999389648</ele>
        <time>2011-09-20T08:29:34.000Z</time>
      </trkpt>
      <trkpt lat="48.71327" lon="1.68622">
        <ele>153.80000305176</ele>
        <time>2011-09-20T08:29:39.000Z</time>
      </trkpt>
      <trkpt lat="48.71326" lon="1.68604">
        <ele>153.39999389648</ele>
        <time>2011-09-20T08:29:44.000Z</time>
      </trkpt>
      <trkpt lat="48.71325" lon="1.68586">
        <ele>153.19999694824</ele>
        <time>2011-09-20T08:29:48.000Z</time>
      </trkpt>
      <trkpt lat="48.71318" lon="1.68558">
        <ele>153.19999694824</ele>
        <time>2011-09-20T08:29:54.000Z</time>
      </trkpt>
      <trkpt lat="48.71315" lon="1.68538">
        <ele>152.80000305176</ele>
        <time>2011-09-20T08:29:59.000Z</time>
      </trkpt>
      <trkpt lat="48.71309" lon="1.68505">
        <ele>152.39999389648</ele>
        <time>2011-09-20T08:30:05.000Z</time>
      </trkpt>
      <trkpt lat="48.71305" lon="1.68485">
        <ele>152.19999694824</ele>
        <time>2011-09-20T08:30:09.000Z</time>
      </trkpt>
      <trkpt lat="48.71298" lon="1.68464">
        <ele>152.19999694824</ele>
        <time>2011-09-20T08:30:13.000Z</time>
      </trkpt>
      <trkpt lat="48.71276" lon="1.68445">
        <ele>153.80000305176</ele>
        <time>2011-09-20T08:30:20.000Z</time>
      </trkpt>
      <trkpt lat="48.7126" lon="1.68439">
        <ele>155.19999694824</ele>
        <time>2011-09-20T08:30:24.000Z</time>
      </trkpt>
      <trkpt lat="48.7124" lon="1.68432">
        <ele>157</ele>
        <time>2011-09-20T08:30:29.000Z</time>
      </trkpt>
      <trkpt lat="48.71226" lon="1.68432">
        <ele>159</ele>
        <time>2011-09-20T08:30:33.000Z</time>
      </trkpt>
      <trkpt lat="48.71206" lon="1.68429">
        <ele>161.39999389648</ele>
        <time>2011-09-20T08:30:39.000Z</time>
      </trkpt>
      <trkpt lat="48.71188" lon="1.68429">
        <ele>163.60000610352</ele>
        <time>2011-09-20T08:30:43.000Z</time>
      </trkpt>
      <trkpt lat="48.71169" lon="1.68434">
        <ele>166.39999389648</ele>
        <time>2011-09-20T08:30:48.000Z</time>
      </trkpt>
      <trkpt lat="48.71153" lon="1.68444">
        <ele>168</ele>
        <time>2011-09-20T08:30:54.000Z</time>
      </trkpt>
      <trkpt lat="48.71139" lon="1.68458">
        <ele>169</ele>
        <time>2011-09-20T08:30:59.000Z</time>
      </trkpt>
      <trkpt lat="48.71127" lon="1.68469">
        <ele>169.80000305176</ele>
        <time>2011-09-20T08:31:03.000Z</time>
      </trkpt>
      <trkpt lat="48.71115" lon="1.68492">
        <ele>170.39999389648</ele>
        <time>2011-09-20T08:31:08.000Z</time>
      </trkpt>
      <trkpt lat="48.71112" lon="1.68496">
        <ele>170.60000610352</ele>
        <time>2011-09-20T08:31:09.000Z</time>
      </trkpt>
      <trkpt lat="48.71088" lon="1.68499">
        <ele>170.80000305176</ele>
        <time>2011-09-20T08:31:15.000Z</time>
      </trkpt>
      <trkpt lat="48.71084" lon="1.68499">
        <ele>171</ele>
        <time>2011-09-20T08:31:16.000Z</time>
      </trkpt>
      <trkpt lat="48.71066" lon="1.68502">
        <ele>172</ele>
        <time>2011-09-20T08:31:21.000Z</time>
      </trkpt>
      <trkpt lat="48.71051" lon="1.68509">
        <ele>173.60000610352</ele>
        <time>2011-09-20T08:31:26.000Z</time>
      </trkpt>
      <trkpt lat="48.71033" lon="1.68516">
        <ele>175</ele>
        <time>2011-09-20T08:31:31.000Z</time>
      </trkpt>
      <trkpt lat="48.71018" lon="1.6852">
        <ele>176</ele>
        <time>2011-09-20T08:31:35.000Z</time>
      </trkpt>
      <trkpt lat="48.70995" lon="1.68533">
        <ele>177.80000305176</ele>
        <time>2011-09-20T08:31:41.000Z</time>
      </trkpt>
      <trkpt lat="48.70976" lon="1.68538">
        <ele>179</ele>
        <time>2011-09-20T08:31:45.000Z</time>
      </trkpt>
      <trkpt lat="48.70964" lon="1.68528">
        <ele>179.39999389648</ele>
        <time>2011-09-20T08:31:50.000Z</time>
      </trkpt>
      <trkpt lat="48.70946" lon="1.68505">
        <ele>180</ele>
        <time>2011-09-20T08:31:56.000Z</time>
      </trkpt>
      <trkpt lat="48.70935" lon="1.68496">
        <ele>180.60000610352</ele>
        <time>2011-09-20T08:32:01.000Z</time>
      </trkpt>
      <trkpt lat="48.70917" lon="1.68487">
        <ele>182.19999694824</ele>
        <time>2011-09-20T08:32:07.000Z</time>
      </trkpt>
      <trkpt lat="48.70899" lon="1.68475">
        <ele>183.19999694824</ele>
        <time>2011-09-20T08:32:13.000Z</time>
      </trkpt>
      <trkpt lat="48.70889" lon="1.68468">
        <ele>183.80000305176</ele>
        <time>2011-09-20T08:32:17.000Z</time>
      </trkpt>
      <trkpt lat="48.70876" lon="1.68461">
        <ele>184.60000610352</ele>
        <time>2011-09-20T08:32:22.000Z</time>
      </trkpt>
      <trkpt lat="48.70861" lon="1.68456">
        <ele>185.19999694824</ele>
        <time>2011-09-20T08:32:26.000Z</time>
      </trkpt>
      <trkpt lat="48.70845" lon="1.68451">
        <ele>186</ele>
        <time>2011-09-20T08:32:31.000Z</time>
      </trkpt>
      <trkpt lat="48.70835" lon="1.68448">
        <ele>186.39999389648</ele>
        <time>2011-09-20T08:32:35.000Z</time>
      </trkpt>
      <trkpt lat="48.70816" lon="1.68449">
        <ele>186.60000610352</ele>
        <time>2011-09-20T08:32:41.000Z</time>
      </trkpt>
      <trkpt lat="48.70801" lon="1.68455">
        <ele>186.60000610352</ele>
        <time>2011-09-20T08:32:45.000Z</time>
      </trkpt>
      <trkpt lat="48.7079" lon="1.68463">
        <ele>186.60000610352</ele>
        <time>2011-09-20T08:32:49.000Z</time>
      </trkpt>
      <trkpt lat="48.70785" lon="1.6847">
        <ele>186.80000305176</ele>
        <time>2011-09-20T08:32:52.000Z</time>
      </trkpt>
      <trkpt lat="48.70779" lon="1.68488">
        <ele>187</ele>
        <time>2011-09-20T08:32:58.000Z</time>
      </trkpt>
      <trkpt lat="48.70781" lon="1.68506">
        <ele>187</ele>
        <time>2011-09-20T08:33:03.000Z</time>
      </trkpt>
      <trkpt lat="48.70786" lon="1.68522">
        <ele>186.60000610352</ele>
        <time>2011-09-20T08:33:06.000Z</time>
      </trkpt>
      <trkpt lat="48.7079" lon="1.68553">
        <ele>186</ele>
        <time>2011-09-20T08:33:12.000Z</time>
      </trkpt>
      <trkpt lat="48.70795" lon="1.68581">
        <ele>185.39999389648</ele>
        <time>2011-09-20T08:33:17.000Z</time>
      </trkpt>
      <trkpt lat="48.70799" lon="1.68602">
        <ele>185.19999694824</ele>
        <time>2011-09-20T08:33:21.000Z</time>
      </trkpt>
      <trkpt lat="48.70802" lon="1.68631">
        <ele>185</ele>
        <time>2011-09-20T08:33:26.000Z</time>
      </trkpt>
      <trkpt lat="48.70802" lon="1.68671">
        <ele>184.60000610352</ele>
        <time>2011-09-20T08:33:33.000Z</time>
      </trkpt>
      <trkpt lat="48.70801" lon="1.68699">
        <ele>184.80000305176</ele>
        <time>2011-09-20T08:33:38.000Z</time>
      </trkpt>
      <trkpt lat="48.70801" lon="1.68723">
        <ele>185</ele>
        <time>2011-09-20T08:33:42.000Z</time>
      </trkpt>
      <trkpt lat="48.70802" lon="1.68755">
        <ele>185.19999694824</ele>
        <time>2011-09-20T08:33:48.000Z</time>
      </trkpt>
      <trkpt lat="48.70802" lon="1.68797">
        <ele>185.39999389648</ele>
        <time>2011-09-20T08:33:55.000Z</time>
      </trkpt>
      <trkpt lat="48.70803" lon="1.68822">
        <ele>185.39999389648</ele>
        <time>2011-09-20T08:33:59.000Z</time>
      </trkpt>
      <trkpt lat="48.70803" lon="1.68854">
        <ele>185.60000610352</ele>
        <time>2011-09-20T08:34:04.000Z</time>
      </trkpt>
      <trkpt lat="48.70803" lon="1.68861">
        <ele>185.80000305176</ele>
        <time>2011-09-20T08:34:05.000Z</time>
      </trkpt>
      <trkpt lat="48.70804" lon="1.6888">
        <ele>186</ele>
        <time>2011-09-20T08:34:08.000Z</time>
      </trkpt>
      <trkpt lat="48.70803" lon="1.68909">
        <ele>186.19999694824</ele>
        <time>2011-09-20T08:34:13.000Z</time>
      </trkpt>
      <trkpt lat="48.70797" lon="1.68955">
        <ele>186.39999389648</ele>
        <time>2011-09-20T08:34:21.000Z</time>
      </trkpt>
      <trkpt lat="48.70793" lon="1.68991">
        <ele>186.80000305176</ele>
        <time>2011-09-20T08:34:27.000Z</time>
      </trkpt>
      <trkpt lat="48.70793" lon="1.69012">
        <ele>187.19999694824</ele>
        <time>2011-09-20T08:34:30.000Z</time>
      </trkpt>
      <trkpt lat="48.70792" lon="1.69057">
        <ele>188</ele>
        <time>2011-09-20T08:34:37.000Z</time>
      </trkpt>
      <trkpt lat="48.70792" lon="1.6907">
        <ele>188.19999694824</ele>
        <time>2011-09-20T08:34:39.000Z</time>
      </trkpt>
      <trkpt lat="48.70792" lon="1.69108">
        <ele>188</ele>
        <time>2011-09-20T08:34:45.000Z</time>
      </trkpt>
      <trkpt lat="48.70794" lon="1.69125">
        <ele>187.60000610352</ele>
        <time>2011-09-20T08:34:48.000Z</time>
      </trkpt>
      <trkpt lat="48.70804" lon="1.69136">
        <ele>187.19999694824</ele>
        <time>2011-09-20T08:34:52.000Z</time>
      </trkpt>
      <trkpt lat="48.70824" lon="1.69146">
        <ele>186.19999694824</ele>
        <time>2011-09-20T08:34:58.000Z</time>
      </trkpt>
      <trkpt lat="48.70846" lon="1.69155">
        <ele>185.39999389648</ele>
        <time>2011-09-20T08:35:04.000Z</time>
      </trkpt>
      <trkpt lat="48.70871" lon="1.69165">
        <ele>185</ele>
        <time>2011-09-20T08:35:11.000Z</time>
      </trkpt>
      <trkpt lat="48.70889" lon="1.69172">
        <ele>184.60000610352</ele>
        <time>2011-09-20T08:35:16.000Z</time>
      </trkpt>
      <trkpt lat="48.70907" lon="1.69181">
        <ele>184.19999694824</ele>
        <time>2011-09-20T08:35:21.000Z</time>
      </trkpt>
      <trkpt lat="48.7092" lon="1.69188">
        <ele>183.80000305176</ele>
        <time>2011-09-20T08:35:25.000Z</time>
      </trkpt>
      <trkpt lat="48.70921" lon="1.69202">
        <ele>183</ele>
        <time>2011-09-20T08:35:29.000Z</time>
      </trkpt>
      <trkpt lat="48.70909" lon="1.69224">
        <ele>182.19999694824</ele>
        <time>2011-09-20T08:35:34.000Z</time>
      </trkpt>
      <trkpt lat="48.70889" lon="1.69256">
        <ele>181.19999694824</ele>
        <time>2011-09-20T08:35:41.000Z</time>
      </trkpt>
      <trkpt lat="48.70863" lon="1.69296">
        <ele>181</ele>
        <time>2011-09-20T08:35:50.000Z</time>
      </trkpt>
      <trkpt lat="48.70835" lon="1.69341">
        <ele>181</ele>
        <time>2011-09-20T08:36:00.000Z</time>
      </trkpt>
      <trkpt lat="48.70811" lon="1.69377">
        <ele>181.80000305176</ele>
        <time>2011-09-20T08:36:08.000Z</time>
      </trkpt>
      <trkpt lat="48.70806" lon="1.69387">
        <ele>181.80000305176</ele>
        <time>2011-09-20T08:36:10.000Z</time>
      </trkpt>
      <trkpt lat="48.70795" lon="1.69405">
        <ele>181.60000610352</ele>
        <time>2011-09-20T08:36:14.000Z</time>
      </trkpt>
      <trkpt lat="48.70783" lon="1.69427">
        <ele>181.19999694824</ele>
        <time>2011-09-20T08:36:19.000Z</time>
      </trkpt>
      <trkpt lat="48.7076" lon="1.69457">
        <ele>180.60000610352</ele>
        <time>2011-09-20T08:36:27.000Z</time>
      </trkpt>
      <trkpt lat="48.7074" lon="1.6949">
        <ele>180.19999694824</ele>
        <time>2011-09-20T08:36:34.000Z</time>
      </trkpt>
      <trkpt lat="48.70726" lon="1.69512">
        <ele>180.39999389648</ele>
        <time>2011-09-20T08:36:39.000Z</time>
      </trkpt>
      <trkpt lat="48.70722" lon="1.69522">
        <ele>180.39999389648</ele>
        <time>2011-09-20T08:36:41.000Z</time>
      </trkpt>
      <trkpt lat="48.70703" lon="1.6955">
        <ele>181.19999694824</ele>
        <time>2011-09-20T08:36:48.000Z</time>
      </trkpt>
      <trkpt lat="48.70683" lon="1.6958">
        <ele>182</ele>
        <time>2011-09-20T08:36:55.000Z</time>
      </trkpt>
      <trkpt lat="48.70664" lon="1.69612">
        <ele>183</ele>
        <time>2011-09-20T08:37:02.000Z</time>
      </trkpt>
      <trkpt lat="48.70651" lon="1.69642">
        <ele>183.19999694824</ele>
        <time>2011-09-20T08:37:07.000Z</time>
      </trkpt>
      <trkpt lat="48.70633" lon="1.69667">
        <ele>183.19999694824</ele>
        <time>2011-09-20T08:37:13.000Z</time>
      </trkpt>
      <trkpt lat="48.70616" lon="1.69691">
        <ele>183.60000610352</ele>
        <time>2011-09-20T08:37:19.000Z</time>
      </trkpt>
      <trkpt lat="48.70598" lon="1.69716">
        <ele>184.19999694824</ele>
        <time>2011-09-20T08:37:25.000Z</time>
      </trkpt>
      <trkpt lat="48.70596" lon="1.6972">
        <ele>184.39999389648</ele>
        <time>2011-09-20T08:37:26.000Z</time>
      </trkpt>
      <trkpt lat="48.70583" lon="1.6974">
        <ele>184.80000305176</ele>
        <time>2011-09-20T08:37:31.000Z</time>
      </trkpt>
      <trkpt lat="48.70574" lon="1.69754">
        <ele>184.80000305176</ele>
        <time>2011-09-20T08:37:36.000Z</time>
      </trkpt>
      <trkpt lat="48.70564" lon="1.69771">
        <ele>184.60000610352</ele>
        <time>2011-09-20T08:37:40.000Z</time>
      </trkpt>
      <trkpt lat="48.70548" lon="1.69794">
        <ele>184.19999694824</ele>
        <time>2011-09-20T08:37:46.000Z</time>
      </trkpt>
      <trkpt lat="48.70532" lon="1.69822">
        <ele>184</ele>
        <time>2011-09-20T08:37:52.000Z</time>
      </trkpt>
      <trkpt lat="48.70524" lon="1.69837">
        <ele>184</ele>
        <time>2011-09-20T08:37:56.000Z</time>
      </trkpt>
      <trkpt lat="48.70508" lon="1.69863">
        <ele>184.39999389648</ele>
        <time>2011-09-20T08:38:02.000Z</time>
      </trkpt>
      <trkpt lat="48.70493" lon="1.69885">
        <ele>184</ele>
        <time>2011-09-20T08:38:08.000Z</time>
      </trkpt>
      <trkpt lat="48.70496" lon="1.69903">
        <ele>184</ele>
        <time>2011-09-20T08:38:12.000Z</time>
      </trkpt>
      <trkpt lat="48.70499" lon="1.69906">
        <ele>184</ele>
        <time>2011-09-20T08:38:13.000Z</time>
      </trkpt>
      <trkpt lat="48.70519" lon="1.69931">
        <ele>183.60000610352</ele>
        <time>2011-09-20T08:38:20.000Z</time>
      </trkpt>
      <trkpt lat="48.70546" lon="1.69966">
        <ele>183.80000305176</ele>
        <time>2011-09-20T08:38:29.000Z</time>
      </trkpt>
      <trkpt lat="48.70561" lon="1.69985">
        <ele>184.19999694824</ele>
        <time>2011-09-20T08:38:34.000Z</time>
      </trkpt>
      <trkpt lat="48.70582" lon="1.70012">
        <ele>184.60000610352</ele>
        <time>2011-09-20T08:38:41.000Z</time>
      </trkpt>
      <trkpt lat="48.70597" lon="1.70031">
        <ele>184.60000610352</ele>
        <time>2011-09-20T08:38:46.000Z</time>
      </trkpt>
      <trkpt lat="48.70607" lon="1.70046">
        <ele>184.60000610352</ele>
        <time>2011-09-20T08:38:50.000Z</time>
      </trkpt>
      <trkpt lat="48.7062" lon="1.70064">
        <ele>185</ele>
        <time>2011-09-20T08:38:55.000Z</time>
      </trkpt>
      <trkpt lat="48.70628" lon="1.70076">
        <ele>185.19999694824</ele>
        <time>2011-09-20T08:38:59.000Z</time>
      </trkpt>
      <trkpt lat="48.7064" lon="1.70094">
        <ele>185.19999694824</ele>
        <time>2011-09-20T08:39:05.000Z</time>
      </trkpt>
      <trkpt lat="48.70656" lon="1.70114">
        <ele>185</ele>
        <time>2011-09-20T08:39:10.000Z</time>
      </trkpt>
      <trkpt lat="48.70669" lon="1.70131">
        <ele>184.60000610352</ele>
        <time>2011-09-20T08:39:15.000Z</time>
      </trkpt>
      <trkpt lat="48.70685" lon="1.70152">
        <ele>184.19999694824</ele>
        <time>2011-09-20T08:39:21.000Z</time>
      </trkpt>
      <trkpt lat="48.70702" lon="1.70173">
        <ele>184</ele>
        <time>2011-09-20T08:39:26.000Z</time>
      </trkpt>
      <trkpt lat="48.70706" lon="1.70178">
        <ele>184</ele>
        <time>2011-09-20T08:39:27.000Z</time>
      </trkpt>
      <trkpt lat="48.70718" lon="1.70194">
        <ele>184</ele>
        <time>2011-09-20T08:39:31.000Z</time>
      </trkpt>
      <trkpt lat="48.70724" lon="1.70215">
        <ele>183.60000610352</ele>
        <time>2011-09-20T08:39:35.000Z</time>
      </trkpt>
      <trkpt lat="48.7072" lon="1.70232">
        <ele>183</ele>
        <time>2011-09-20T08:39:38.000Z</time>
      </trkpt>
      <trkpt lat="48.70718" lon="1.7026">
        <ele>181.80000305176</ele>
        <time>2011-09-20T08:39:43.000Z</time>
      </trkpt>
      <trkpt lat="48.70711" lon="1.70287">
        <ele>180.19999694824</ele>
        <time>2011-09-20T08:39:48.000Z</time>
      </trkpt>
      <trkpt lat="48.70704" lon="1.70314">
        <ele>179</ele>
        <time>2011-09-20T08:39:53.000Z</time>
      </trkpt>
      <trkpt lat="48.70696" lon="1.70352">
        <ele>179.19999694824</ele>
        <time>2011-09-20T08:40:00.000Z</time>
      </trkpt>
      <trkpt lat="48.70691" lon="1.7038">
        <ele>180.39999389648</ele>
        <time>2011-09-20T08:40:05.000Z</time>
      </trkpt>
      <trkpt lat="48.70682" lon="1.70407">
        <ele>183</ele>
        <time>2011-09-20T08:40:10.000Z</time>
      </trkpt>
      <trkpt lat="48.70681" lon="1.70417">
        <ele>183.60000610352</ele>
        <time>2011-09-20T08:40:12.000Z</time>
      </trkpt>
      <trkpt lat="48.70689" lon="1.70421">
        <ele>182</ele>
        <time>2011-09-20T08:40:16.000Z</time>
      </trkpt>
      <trkpt lat="48.70691" lon="1.70419">
        <ele>181.39999389648</ele>
        <time>2011-09-20T08:40:17.000Z</time>
      </trkpt>
      <trkpt lat="48.70699" lon="1.70395">
        <ele>179.19999694824</ele>
        <time>2011-09-20T08:40:23.000Z</time>
      </trkpt>
      <trkpt lat="48.70705" lon="1.70368">
        <ele>178.19999694824</ele>
        <time>2011-09-20T08:40:29.000Z</time>
      </trkpt>
      <trkpt lat="48.70712" lon="1.70346">
        <ele>177.39999389648</ele>
        <time>2011-09-20T08:40:35.000Z</time>
      </trkpt>
      <trkpt lat="48.70725" lon="1.70335">
        <ele>176.60000610352</ele>
        <time>2011-09-20T08:40:40.000Z</time>
      </trkpt>
      <trkpt lat="48.70753" lon="1.70325">
        <ele>175.80000305176</ele>
        <time>2011-09-20T08:40:49.000Z</time>
      </trkpt>
      <trkpt lat="48.7077" lon="1.70321">
        <ele>177</ele>
        <time>2011-09-20T08:40:54.000Z</time>
      </trkpt>
      <trkpt lat="48.70782" lon="1.70318">
        <ele>177.80000305176</ele>
        <time>2011-09-20T08:40:58.000Z</time>
      </trkpt>
      <trkpt lat="48.708" lon="1.70314">
        <ele>179</ele>
        <time>2011-09-20T08:41:03.000Z</time>
      </trkpt>
      <trkpt lat="48.7082" lon="1.7031">
        <ele>180.39999389648</ele>
        <time>2011-09-20T08:41:09.000Z</time>
      </trkpt>
      <trkpt lat="48.70839" lon="1.70304">
        <ele>181.39999389648</ele>
        <time>2011-09-20T08:41:14.000Z</time>
      </trkpt>
      <trkpt lat="48.70861" lon="1.70302">
        <ele>180</ele>
        <time>2011-09-20T08:41:20.000Z</time>
      </trkpt>
      <trkpt lat="48.70874" lon="1.70297">
        <ele>179.39999389648</ele>
        <time>2011-09-20T08:41:24.000Z</time>
      </trkpt>
      <trkpt lat="48.70881" lon="1.70281">
        <ele>179.80000305176</ele>
        <time>2011-09-20T08:41:28.000Z</time>
      </trkpt>
      <trkpt lat="48.70882" lon="1.70257">
        <ele>181.39999389648</ele>
        <time>2011-09-20T08:41:33.000Z</time>
      </trkpt>
      <trkpt lat="48.70878" lon="1.70229">
        <ele>181.80000305176</ele>
        <time>2011-09-20T08:41:39.000Z</time>
      </trkpt>
      <trkpt lat="48.70874" lon="1.702">
        <ele>181.80000305176</ele>
        <time>2011-09-20T08:41:45.000Z</time>
      </trkpt>
      <trkpt lat="48.70869" lon="1.70168">
        <ele>182.19999694824</ele>
        <time>2011-09-20T08:41:51.000Z</time>
      </trkpt>
      <trkpt lat="48.70873" lon="1.70138">
        <ele>180.80000305176</ele>
        <time>2011-09-20T08:41:57.000Z</time>
      </trkpt>
      <trkpt lat="48.70887" lon="1.70115">
        <ele>178.39999389648</ele>
        <time>2011-09-20T08:42:03.000Z</time>
      </trkpt>
      <trkpt lat="48.70889" lon="1.70102">
        <ele>177.80000305176</ele>
        <time>2011-09-20T08:42:06.000Z</time>
      </trkpt>
      <trkpt lat="48.70882" lon="1.70084">
        <ele>178.80000305176</ele>
        <time>2011-09-20T08:42:11.000Z</time>
      </trkpt>
      <trkpt lat="48.70867" lon="1.7007">
        <ele>180.60000610352</ele>
        <time>2011-09-20T08:42:17.000Z</time>
      </trkpt>
      <trkpt lat="48.70856" lon="1.70052">
        <ele>181.19999694824</ele>
        <time>2011-09-20T08:42:22.000Z</time>
      </trkpt>
      <trkpt lat="48.70854" lon="1.70049">
        <ele>181.39999389648</ele>
        <time>2011-09-20T08:42:23.000Z</time>
      </trkpt>
      <trkpt lat="48.70832" lon="1.70042">
        <ele>184</ele>
        <time>2011-09-20T08:42:30.000Z</time>
      </trkpt>
      <trkpt lat="48.70814" lon="1.70035">
        <ele>184.60000610352</ele>
        <time>2011-09-20T08:42:36.000Z</time>
      </trkpt>
      <trkpt lat="48.70791" lon="1.70031">
        <ele>185.60000610352</ele>
        <time>2011-09-20T08:42:43.000Z</time>
      </trkpt>
      <trkpt lat="48.70772" lon="1.70027">
        <ele>186.60000610352</ele>
        <time>2011-09-20T08:42:49.000Z</time>
      </trkpt>
      <trkpt lat="48.7076" lon="1.70023">
        <ele>187.39999389648</ele>
        <time>2011-09-20T08:42:53.000Z</time>
      </trkpt>
      <trkpt lat="48.70746" lon="1.70015">
        <ele>187.80000305176</ele>
        <time>2011-09-20T08:42:59.000Z</time>
      </trkpt>
      <trkpt lat="48.70738" lon="1.7">
        <ele>187.80000305176</ele>
        <time>2011-09-20T08:43:04.000Z</time>
      </trkpt>
      <trkpt lat="48.70734" lon="1.69983">
        <ele>187</ele>
        <time>2011-09-20T08:43:08.000Z</time>
      </trkpt>
      <trkpt lat="48.70725" lon="1.69978">
        <ele>186.60000610352</ele>
        <time>2011-09-20T08:43:12.000Z</time>
      </trkpt>
      <trkpt lat="48.70714" lon="1.69985">
        <ele>186.80000305176</ele>
        <time>2011-09-20T08:43:16.000Z</time>
      </trkpt>
      <trkpt lat="48.70699" lon="1.69993">
        <ele>187</ele>
        <time>2011-09-20T08:43:21.000Z</time>
      </trkpt>
      <trkpt lat="48.70696" lon="1.69996">
        <ele>187</ele>
        <time>2011-09-20T08:43:22.000Z</time>
      </trkpt>
      <trkpt lat="48.7068" lon="1.70006">
        <ele>187</ele>
        <time>2011-09-20T08:43:27.000Z</time>
      </trkpt>
      <trkpt lat="48.70663" lon="1.70016">
        <ele>186.80000305176</ele>
        <time>2011-09-20T08:43:32.000Z</time>
      </trkpt>
      <trkpt lat="48.70651" lon="1.70024">
        <ele>186.39999389648</ele>
        <time>2011-09-20T08:43:36.000Z</time>
      </trkpt>
      <trkpt lat="48.70637" lon="1.70032">
        <ele>186</ele>
        <time>2011-09-20T08:43:40.000Z</time>
      </trkpt>
      <trkpt lat="48.70622" lon="1.70045">
        <ele>185.19999694824</ele>
        <time>2011-09-20T08:43:45.000Z</time>
      </trkpt>
      <trkpt lat="48.70617" lon="1.70051">
        <ele>185</ele>
        <time>2011-09-20T08:43:47.000Z</time>
      </trkpt>
      <trkpt lat="48.70622" lon="1.70069">
        <ele>185</ele>
        <time>2011-09-20T08:43:52.000Z</time>
      </trkpt>
      <trkpt lat="48.70632" lon="1.70083">
        <ele>185.19999694824</ele>
        <time>2011-09-20T08:43:56.000Z</time>
      </trkpt>
      <trkpt lat="48.70647" lon="1.70102">
        <ele>185.19999694824</ele>
        <time>2011-09-20T08:44:02.000Z</time>
      </trkpt>
      <trkpt lat="48.70661" lon="1.70118">
        <ele>185</ele>
        <time>2011-09-20T08:44:06.000Z</time>
      </trkpt>
      <trkpt lat="48.70675" lon="1.70133">
        <ele>184.80000305176</ele>
        <time>2011-09-20T08:44:10.000Z</time>
      </trkpt>
      <trkpt lat="48.7069" lon="1.70153">
        <ele>184.19999694824</ele>
        <time>2011-09-20T08:44:16.000Z</time>
      </trkpt>
      <trkpt lat="48.70708" lon="1.70178">
        <ele>184</ele>
        <time>2011-09-20T08:44:23.000Z</time>
      </trkpt>
      <trkpt lat="48.70719" lon="1.70193">
        <ele>184</ele>
        <time>2011-09-20T08:44:27.000Z</time>
      </trkpt>
      <trkpt lat="48.70737" lon="1.70214">
        <ele>184.19999694824</ele>
        <time>2011-09-20T08:44:34.000Z</time>
      </trkpt>
      <trkpt lat="48.70753" lon="1.70232">
        <ele>184.39999389648</ele>
        <time>2011-09-20T08:44:39.000Z</time>
      </trkpt>
      <trkpt lat="48.70769" lon="1.70243">
        <ele>185.19999694824</ele>
        <time>2011-09-20T08:44:43.000Z</time>
      </trkpt>
      <trkpt lat="48.70772" lon="1.70246">
        <ele>185.39999389648</ele>
        <time>2011-09-20T08:44:44.000Z</time>
      </trkpt>
      <trkpt lat="48.70782" lon="1.70263">
        <ele>184.39999389648</ele>
        <time>2011-09-20T08:44:48.000Z</time>
      </trkpt>
      <trkpt lat="48.70797" lon="1.70283">
        <ele>182.80000305176</ele>
        <time>2011-09-20T08:44:54.000Z</time>
      </trkpt>
      <trkpt lat="48.70812" lon="1.70289">
        <ele>182.60000610352</ele>
        <time>2011-09-20T08:44:58.000Z</time>
      </trkpt>
      <trkpt lat="48.70834" lon="1.70298">
        <ele>182.60000610352</ele>
        <time>2011-09-20T08:45:04.000Z</time>
      </trkpt>
      <trkpt lat="48.70838" lon="1.70301">
        <ele>181.80000305176</ele>
        <time>2011-09-20T08:45:08.000Z</time>
      </trkpt>
      <trkpt lat="48.70848" lon="1.70305">
        <ele>180.60000610352</ele>
        <time>2011-09-20T08:45:13.000Z</time>
      </trkpt>
      <trkpt lat="48.70862" lon="1.70314">
        <ele>178.80000305176</ele>
        <time>2011-09-20T08:45:18.000Z</time>
      </trkpt>
      <trkpt lat="48.70882" lon="1.70328">
        <ele>176.60000610352</ele>
        <time>2011-09-20T08:45:25.000Z</time>
      </trkpt>
      <trkpt lat="48.70894" lon="1.70344">
        <ele>174</ele>
        <time>2011-09-20T08:45:32.000Z</time>
      </trkpt>
      <trkpt lat="48.709" lon="1.70356">
        <ele>172.19999694824</ele>
        <time>2011-09-20T08:45:37.000Z</time>
      </trkpt>
      <trkpt lat="48.70906" lon="1.70365">
        <ele>170.60000610352</ele>
        <time>2011-09-20T08:45:42.000Z</time>
      </trkpt>
      <trkpt lat="48.70905" lon="1.70364">
        <ele>171</ele>
        <time>2011-09-20T08:45:47.000Z</time>
      </trkpt>
      <trkpt lat="48.70896" lon="1.70347">
        <ele>173.60000610352</ele>
        <time>2011-09-20T08:45:52.000Z</time>
      </trkpt>
      <trkpt lat="48.70886" lon="1.70333">
        <ele>176</ele>
        <time>2011-09-20T08:45:57.000Z</time>
      </trkpt>
      <trkpt lat="48.70865" lon="1.70318">
        <ele>178.19999694824</ele>
        <time>2011-09-20T08:46:04.000Z</time>
      </trkpt>
      <trkpt lat="48.70851" lon="1.70309">
        <ele>180</ele>
        <time>2011-09-20T08:46:09.000Z</time>
      </trkpt>
      <trkpt lat="48.70843" lon="1.70307">
        <ele>180.60000610352</ele>
        <time>2011-09-20T08:46:14.000Z</time>
      </trkpt>
      <trkpt lat="48.70843" lon="1.70307">
        <ele>180.60000610352</ele>
        <time>2011-09-20T08:46:16.000Z</time>
      </trkpt>
      <trkpt lat="48.70838" lon="1.70309">
        <ele>180.80000305176</ele>
        <time>2011-09-20T08:46:22.000Z</time>
      </trkpt>
      <trkpt lat="48.70838" lon="1.7031">
        <ele>180.80000305176</ele>
        <time>2011-09-20T08:46:23.000Z</time>
      </trkpt>
      <trkpt lat="48.70844" lon="1.70305">
        <ele>180.80000305176</ele>
        <time>2011-09-20T08:46:31.000Z</time>
      </trkpt>
      <trkpt lat="48.70858" lon="1.70302">
        <ele>180.19999694824</ele>
        <time>2011-09-20T08:46:36.000Z</time>
      </trkpt>
      <trkpt lat="48.7087" lon="1.70301">
        <ele>179.19999694824</ele>
        <time>2011-09-20T08:46:41.000Z</time>
      </trkpt>
      <trkpt lat="48.7088" lon="1.7029">
        <ele>179.39999389648</ele>
        <time>2011-09-20T08:46:46.000Z</time>
      </trkpt>
      <trkpt lat="48.70883" lon="1.70271">
        <ele>180.39999389648</ele>
        <time>2011-09-20T08:46:51.000Z</time>
      </trkpt>
      <trkpt lat="48.70881" lon="1.70251">
        <ele>182</ele>
        <time>2011-09-20T08:46:55.000Z</time>
      </trkpt>
      <trkpt lat="48.70877" lon="1.70218">
        <ele>181.80000305176</ele>
        <time>2011-09-20T08:47:02.000Z</time>
      </trkpt>
      <trkpt lat="48.70874" lon="1.70193">
        <ele>181.60000610352</ele>
        <time>2011-09-20T08:47:07.000Z</time>
      </trkpt>
      <trkpt lat="48.70874" lon="1.70168">
        <ele>181</ele>
        <time>2011-09-20T08:47:12.000Z</time>
      </trkpt>
      <trkpt lat="48.70879" lon="1.7014">
        <ele>179.80000305176</ele>
        <time>2011-09-20T08:47:18.000Z</time>
      </trkpt>
      <trkpt lat="48.70889" lon="1.70121">
        <ele>178</ele>
        <time>2011-09-20T08:47:23.000Z</time>
      </trkpt>
      <trkpt lat="48.70894" lon="1.70101">
        <ele>177.19999694824</ele>
        <time>2011-09-20T08:47:28.000Z</time>
      </trkpt>
      <trkpt lat="48.7089" lon="1.70089">
        <ele>177.80000305176</ele>
        <time>2011-09-20T08:47:31.000Z</time>
      </trkpt>
      <trkpt lat="48.7087" lon="1.7007">
        <ele>180</ele>
        <time>2011-09-20T08:47:38.000Z</time>
      </trkpt>
      <trkpt lat="48.70856" lon="1.7005">
        <ele>181.19999694824</ele>
        <time>2011-09-20T08:47:44.000Z</time>
      </trkpt>
      <trkpt lat="48.70843" lon="1.70044">
        <ele>182.60000610352</ele>
        <time>2011-09-20T08:47:48.000Z</time>
      </trkpt>
      <trkpt lat="48.70827" lon="1.70042">
        <ele>184.19999694824</ele>
        <time>2011-09-20T08:47:53.000Z</time>
      </trkpt>
      <trkpt lat="48.70807" lon="1.70034">
        <ele>184.80000305176</ele>
        <time>2011-09-20T08:47:59.000Z</time>
      </trkpt>
      <trkpt lat="48.70792" lon="1.70032">
        <ele>185.60000610352</ele>
        <time>2011-09-20T08:48:04.000Z</time>
      </trkpt>
      <trkpt lat="48.70775" lon="1.70029">
        <ele>186.60000610352</ele>
        <time>2011-09-20T08:48:08.000Z</time>
      </trkpt>
      <trkpt lat="48.70762" lon="1.70027">
        <ele>187.19999694824</ele>
        <time>2011-09-20T08:48:12.000Z</time>
      </trkpt>
      <trkpt lat="48.70746" lon="1.70019">
        <ele>187.80000305176</ele>
        <time>2011-09-20T08:48:17.000Z</time>
      </trkpt>
      <trkpt lat="48.70742" lon="1.70017">
        <ele>187.80000305176</ele>
        <time>2011-09-20T08:48:19.000Z</time>
      </trkpt>
      <trkpt lat="48.7074" lon="1.70012">
        <ele>187.80000305176</ele>
        <time>2011-09-20T08:48:24.000Z</time>
      </trkpt>
      <trkpt lat="48.70741" lon="1.70012">
        <ele>187.80000305176</ele>
        <time>2011-09-20T08:48:26.000Z</time>
      </trkpt>
      <trkpt lat="48.70741" lon="1.70031">
        <ele>187.80000305176</ele>
        <time>2011-09-20T08:48:31.000Z</time>
      </trkpt>
      <trkpt lat="48.70741" lon="1.70044">
        <ele>187.80000305176</ele>
        <time>2011-09-20T08:48:34.000Z</time>
      </trkpt>
      <trkpt lat="48.70741" lon="1.70065">
        <ele>187.80000305176</ele>
        <time>2011-09-20T08:48:38.000Z</time>
      </trkpt>
      <trkpt lat="48.70738" lon="1.70092">
        <ele>187.60000610352</ele>
        <time>2011-09-20T08:48:43.000Z</time>
      </trkpt>
      <trkpt lat="48.70734" lon="1.70119">
        <ele>186.60000610352</ele>
        <time>2011-09-20T08:48:48.000Z</time>
      </trkpt>
      <trkpt lat="48.70731" lon="1.7016">
        <ele>185.39999389648</ele>
        <time>2011-09-20T08:48:55.000Z</time>
      </trkpt>
      <trkpt lat="48.70729" lon="1.7018">
        <ele>184.80000305176</ele>
        <time>2011-09-20T08:48:59.000Z</time>
      </trkpt>
      <trkpt lat="48.70723" lon="1.70201">
        <ele>184</ele>
        <time>2011-09-20T08:49:04.000Z</time>
      </trkpt>
      <trkpt lat="48.70723" lon="1.70202">
        <ele>184</ele>
        <time>2011-09-20T08:49:05.000Z</time>
      </trkpt>
      <trkpt lat="48.70725" lon="1.70202">
        <ele>184</ele>
        <time>2011-09-20T08:49:09.000Z</time>
      </trkpt>
      <trkpt lat="48.70723" lon="1.70217">
        <ele>183.60000610352</ele>
        <time>2011-09-20T08:49:14.000Z</time>
      </trkpt>
      <trkpt lat="48.70719" lon="1.70241">
        <ele>182.60000610352</ele>
        <time>2011-09-20T08:49:19.000Z</time>
      </trkpt>
      <trkpt lat="48.70714" lon="1.70274">
        <ele>180.80000305176</ele>
        <time>2011-09-20T08:49:25.000Z</time>
      </trkpt>
      <trkpt lat="48.70706" lon="1.70316">
        <ele>178.80000305176</ele>
        <time>2011-09-20T08:49:32.000Z</time>
      </trkpt>
      <trkpt lat="48.70699" lon="1.70342">
        <ele>178.60000610352</ele>
        <time>2011-09-20T08:49:37.000Z</time>
      </trkpt>
      <trkpt lat="48.70693" lon="1.70369">
        <ele>179.80000305176</ele>
        <time>2011-09-20T08:49:42.000Z</time>
      </trkpt>
      <trkpt lat="48.70684" lon="1.70401">
        <ele>182.19999694824</ele>
        <time>2011-09-20T08:49:48.000Z</time>
      </trkpt>
      <trkpt lat="48.70676" lon="1.70426">
        <ele>184.80000305176</ele>
        <time>2011-09-20T08:49:53.000Z</time>
      </trkpt>
      <trkpt lat="48.70672" lon="1.70456">
        <ele>185.80000305176</ele>
        <time>2011-09-20T08:49:58.000Z</time>
      </trkpt>
      <trkpt lat="48.70666" lon="1.70482">
        <ele>187</ele>
        <time>2011-09-20T08:50:03.000Z</time>
      </trkpt>
      <trkpt lat="48.70661" lon="1.70502">
        <ele>187</ele>
        <time>2011-09-20T08:50:07.000Z</time>
      </trkpt>
      <trkpt lat="48.70656" lon="1.7053">
        <ele>186.60000610352</ele>
        <time>2011-09-20T08:50:12.000Z</time>
      </trkpt>
      <trkpt lat="48.70652" lon="1.70554">
        <ele>186</ele>
        <time>2011-09-20T08:50:17.000Z</time>
      </trkpt>
      <trkpt lat="48.70646" lon="1.70578">
        <ele>185.60000610352</ele>
        <time>2011-09-20T08:50:22.000Z</time>
      </trkpt>
      <trkpt lat="48.70638" lon="1.7061">
        <ele>185.39999389648</ele>
        <time>2011-09-20T08:50:28.000Z</time>
      </trkpt>
      <trkpt lat="48.70629" lon="1.7064">
        <ele>185.60000610352</ele>
        <time>2011-09-20T08:50:34.000Z</time>
      </trkpt>
      <trkpt lat="48.70621" lon="1.70671">
        <ele>185.39999389648</ele>
        <time>2011-09-20T08:50:40.000Z</time>
      </trkpt>
      <trkpt lat="48.70613" lon="1.70698">
        <ele>185.60000610352</ele>
        <time>2011-09-20T08:50:45.000Z</time>
      </trkpt>
      <trkpt lat="48.70603" lon="1.70723">
        <ele>185.60000610352</ele>
        <time>2011-09-20T08:50:50.000Z</time>
      </trkpt>
      <trkpt lat="48.70596" lon="1.70749">
        <ele>185.80000305176</ele>
        <time>2011-09-20T08:50:55.000Z</time>
      </trkpt>
      <trkpt lat="48.7059" lon="1.70784">
        <ele>185</ele>
        <time>2011-09-20T08:51:01.000Z</time>
      </trkpt>
      <trkpt lat="48.70581" lon="1.70815">
        <ele>184.39999389648</ele>
        <time>2011-09-20T08:51:07.000Z</time>
      </trkpt>
      <trkpt lat="48.70573" lon="1.70844">
        <ele>183.80000305176</ele>
        <time>2011-09-20T08:51:12.000Z</time>
      </trkpt>
      <trkpt lat="48.70565" lon="1.70877">
        <ele>183.60000610352</ele>
        <time>2011-09-20T08:51:18.000Z</time>
      </trkpt>
      <trkpt lat="48.70558" lon="1.7091">
        <ele>183.60000610352</ele>
        <time>2011-09-20T08:51:24.000Z</time>
      </trkpt>
      <trkpt lat="48.70551" lon="1.70936">
        <ele>183.39999389648</ele>
        <time>2011-09-20T08:51:29.000Z</time>
      </trkpt>
      <trkpt lat="48.70543" lon="1.70969">
        <ele>183.19999694824</ele>
        <time>2011-09-20T08:51:35.000Z</time>
      </trkpt>
      <trkpt lat="48.70536" lon="1.70994">
        <ele>183.19999694824</ele>
        <time>2011-09-20T08:51:40.000Z</time>
      </trkpt>
      <trkpt lat="48.7053" lon="1.71021">
        <ele>183.39999389648</ele>
        <time>2011-09-20T08:51:45.000Z</time>
      </trkpt>
      <trkpt lat="48.7052" lon="1.71051">
        <ele>184</ele>
        <time>2011-09-20T08:51:51.000Z</time>
      </trkpt>
      <trkpt lat="48.70511" lon="1.71075">
        <ele>184.60000610352</ele>
        <time>2011-09-20T08:51:56.000Z</time>
      </trkpt>
      <trkpt lat="48.70504" lon="1.71099">
        <ele>184.80000305176</ele>
        <time>2011-09-20T08:52:01.000Z</time>
      </trkpt>
      <trkpt lat="48.705" lon="1.71129">
        <ele>184.80000305176</ele>
        <time>2011-09-20T08:52:07.000Z</time>
      </trkpt>
      <trkpt lat="48.70498" lon="1.71157">
        <ele>185</ele>
        <time>2011-09-20T08:52:13.000Z</time>
      </trkpt>
      <trkpt lat="48.70495" lon="1.7118">
        <ele>185.19999694824</ele>
        <time>2011-09-20T08:52:18.000Z</time>
      </trkpt>
      <trkpt lat="48.70484" lon="1.7121">
        <ele>185.60000610352</ele>
        <time>2011-09-20T08:52:25.000Z</time>
      </trkpt>
      <trkpt lat="48.70479" lon="1.71231">
        <ele>186</ele>
        <time>2011-09-20T08:52:30.000Z</time>
      </trkpt>
      <trkpt lat="48.70475" lon="1.71249">
        <ele>186.19999694824</ele>
        <time>2011-09-20T08:52:34.000Z</time>
      </trkpt>
      <trkpt lat="48.7047" lon="1.71274">
        <ele>186.60000610352</ele>
        <time>2011-09-20T08:52:39.000Z</time>
      </trkpt>
      <trkpt lat="48.70464" lon="1.713">
        <ele>186.80000305176</ele>
        <time>2011-09-20T08:52:44.000Z</time>
      </trkpt>
      <trkpt lat="48.70457" lon="1.71336">
        <ele>186.80000305176</ele>
        <time>2011-09-20T08:52:51.000Z</time>
      </trkpt>
      <trkpt lat="48.70452" lon="1.71357">
        <ele>186.80000305176</ele>
        <time>2011-09-20T08:52:55.000Z</time>
      </trkpt>
      <trkpt lat="48.70448" lon="1.71377">
        <ele>186.60000610352</ele>
        <time>2011-09-20T08:52:59.000Z</time>
      </trkpt>
      <trkpt lat="48.70441" lon="1.71402">
        <ele>186.19999694824</ele>
        <time>2011-09-20T08:53:04.000Z</time>
      </trkpt>
      <trkpt lat="48.70436" lon="1.71422">
        <ele>185.80000305176</ele>
        <time>2011-09-20T08:53:08.000Z</time>
      </trkpt>
      <trkpt lat="48.70431" lon="1.71444">
        <ele>185.80000305176</ele>
        <time>2011-09-20T08:53:12.000Z</time>
      </trkpt>
      <trkpt lat="48.70426" lon="1.71471">
        <ele>185.80000305176</ele>
        <time>2011-09-20T08:53:17.000Z</time>
      </trkpt>
      <trkpt lat="48.70419" lon="1.71504">
        <ele>185.80000305176</ele>
        <time>2011-09-20T08:53:23.000Z</time>
      </trkpt>
      <trkpt lat="48.70416" lon="1.71529">
        <ele>185.60000610352</ele>
        <time>2011-09-20T08:53:28.000Z</time>
      </trkpt>
      <trkpt lat="48.70411" lon="1.71551">
        <ele>185.19999694824</ele>
        <time>2011-09-20T08:53:32.000Z</time>
      </trkpt>
      <trkpt lat="48.70407" lon="1.71579">
        <ele>184.80000305176</ele>
        <time>2011-09-20T08:53:37.000Z</time>
      </trkpt>
      <trkpt lat="48.70402" lon="1.71605">
        <ele>184.80000305176</ele>
        <time>2011-09-20T08:53:42.000Z</time>
      </trkpt>
      <trkpt lat="48.70397" lon="1.71637">
        <ele>185</ele>
        <time>2011-09-20T08:53:48.000Z</time>
      </trkpt>
      <trkpt lat="48.70392" lon="1.71668">
        <ele>185.39999389648</ele>
        <time>2011-09-20T08:53:54.000Z</time>
      </trkpt>
      <trkpt lat="48.70386" lon="1.717">
        <ele>185.60000610352</ele>
        <time>2011-09-20T08:54:00.000Z</time>
      </trkpt>
      <trkpt lat="48.70382" lon="1.71728">
        <ele>186.19999694824</ele>
        <time>2011-09-20T08:54:05.000Z</time>
      </trkpt>
      <trkpt lat="48.70374" lon="1.71761">
        <ele>186.19999694824</ele>
        <time>2011-09-20T08:54:11.000Z</time>
      </trkpt>
      <trkpt lat="48.70369" lon="1.71781">
        <ele>185.80000305176</ele>
        <time>2011-09-20T08:54:15.000Z</time>
      </trkpt>
      <trkpt lat="48.70361" lon="1.71805">
        <ele>185.19999694824</ele>
        <time>2011-09-20T08:54:20.000Z</time>
      </trkpt>
      <trkpt lat="48.70357" lon="1.71829">
        <ele>184.60000610352</ele>
        <time>2011-09-20T08:54:25.000Z</time>
      </trkpt>
      <trkpt lat="48.70352" lon="1.71859">
        <ele>184</ele>
        <time>2011-09-20T08:54:30.000Z</time>
      </trkpt>
      <trkpt lat="48.70343" lon="1.71895">
        <ele>183.39999389648</ele>
        <time>2011-09-20T08:54:37.000Z</time>
      </trkpt>
      <trkpt lat="48.70338" lon="1.71922">
        <ele>183</ele>
        <time>2011-09-20T08:54:42.000Z</time>
      </trkpt>
      <trkpt lat="48.7033" lon="1.71947">
        <ele>182.80000305176</ele>
        <time>2011-09-20T08:54:47.000Z</time>
      </trkpt>
      <trkpt lat="48.70327" lon="1.71968">
        <ele>182.60000610352</ele>
        <time>2011-09-20T08:54:51.000Z</time>
      </trkpt>
      <trkpt lat="48.7032" lon="1.72002">
        <ele>182.19999694824</ele>
        <time>2011-09-20T08:54:57.000Z</time>
      </trkpt>
      <trkpt lat="48.70312" lon="1.72032">
        <ele>182.39999389648</ele>
        <time>2011-09-20T08:55:02.000Z</time>
      </trkpt>
      <trkpt lat="48.7031" lon="1.72039">
        <ele>182.60000610352</ele>
        <time>2011-09-20T08:55:03.000Z</time>
      </trkpt>
      <trkpt lat="48.70304" lon="1.7206">
        <ele>182.80000305176</ele>
        <time>2011-09-20T08:55:07.000Z</time>
      </trkpt>
      <trkpt lat="48.70298" lon="1.72093">
        <ele>183.39999389648</ele>
        <time>2011-09-20T08:55:13.000Z</time>
      </trkpt>
      <trkpt lat="48.70293" lon="1.7212">
        <ele>183.80000305176</ele>
        <time>2011-09-20T08:55:18.000Z</time>
      </trkpt>
      <trkpt lat="48.70287" lon="1.72146">
        <ele>184.19999694824</ele>
        <time>2011-09-20T08:55:23.000Z</time>
      </trkpt>
      <trkpt lat="48.70282" lon="1.72172">
        <ele>184.80000305176</ele>
        <time>2011-09-20T08:55:28.000Z</time>
      </trkpt>
      <trkpt lat="48.70279" lon="1.72197">
        <ele>184.80000305176</ele>
        <time>2011-09-20T08:55:33.000Z</time>
      </trkpt>
      <trkpt lat="48.70273" lon="1.72223">
        <ele>185</ele>
        <time>2011-09-20T08:55:38.000Z</time>
      </trkpt>
      <trkpt lat="48.70272" lon="1.72247">
        <ele>185.19999694824</ele>
        <time>2011-09-20T08:55:42.000Z</time>
      </trkpt>
      <trkpt lat="48.70267" lon="1.72268">
        <ele>185</ele>
        <time>2011-09-20T08:55:46.000Z</time>
      </trkpt>
      <trkpt lat="48.70262" lon="1.72294">
        <ele>184.80000305176</ele>
        <time>2011-09-20T08:55:51.000Z</time>
      </trkpt>
      <trkpt lat="48.70255" lon="1.72321">
        <ele>184.80000305176</ele>
        <time>2011-09-20T08:55:56.000Z</time>
      </trkpt>
      <trkpt lat="48.70248" lon="1.72349">
        <ele>184.39999389648</ele>
        <time>2011-09-20T08:56:01.000Z</time>
      </trkpt>
      <trkpt lat="48.70243" lon="1.72382">
        <ele>183.19999694824</ele>
        <time>2011-09-20T08:56:07.000Z</time>
      </trkpt>
      <trkpt lat="48.70238" lon="1.724">
        <ele>183</ele>
        <time>2011-09-20T08:56:11.000Z</time>
      </trkpt>
      <trkpt lat="48.70235" lon="1.7243">
        <ele>182.39999389648</ele>
        <time>2011-09-20T08:56:17.000Z</time>
      </trkpt>
      <trkpt lat="48.70228" lon="1.72457">
        <ele>182.19999694824</ele>
        <time>2011-09-20T08:56:22.000Z</time>
      </trkpt>
      <trkpt lat="48.70223" lon="1.72482">
        <ele>181.80000305176</ele>
        <time>2011-09-20T08:56:27.000Z</time>
      </trkpt>
      <trkpt lat="48.70217" lon="1.7251">
        <ele>181.60000610352</ele>
        <time>2011-09-20T08:56:32.000Z</time>
      </trkpt>
      <trkpt lat="48.70212" lon="1.72538">
        <ele>181.19999694824</ele>
        <time>2011-09-20T08:56:37.000Z</time>
      </trkpt>
      <trkpt lat="48.7021" lon="1.72548">
        <ele>181.19999694824</ele>
        <time>2011-09-20T08:56:40.000Z</time>
      </trkpt>
      <trkpt lat="48.70207" lon="1.72557">
        <ele>181.19999694824</ele>
        <time>2011-09-20T08:56:44.000Z</time>
      </trkpt>
      <trkpt lat="48.702" lon="1.72583">
        <ele>181</ele>
        <time>2011-09-20T08:56:49.000Z</time>
      </trkpt>
      <trkpt lat="48.70197" lon="1.72602">
        <ele>180.60000610352</ele>
        <time>2011-09-20T08:56:53.000Z</time>
      </trkpt>
      <trkpt lat="48.70193" lon="1.72622">
        <ele>180.19999694824</ele>
        <time>2011-09-20T08:56:57.000Z</time>
      </trkpt>
      <trkpt lat="48.70185" lon="1.72655">
        <ele>179.39999389648</ele>
        <time>2011-09-20T08:57:03.000Z</time>
      </trkpt>
      <trkpt lat="48.70185" lon="1.72661">
        <ele>179.19999694824</ele>
        <time>2011-09-20T08:57:04.000Z</time>
      </trkpt>
      <trkpt lat="48.70173" lon="1.7269">
        <ele>178.60000610352</ele>
        <time>2011-09-20T08:57:10.000Z</time>
      </trkpt>
      <trkpt lat="48.70172" lon="1.72699">
        <ele>178.19999694824</ele>
        <time>2011-09-20T08:57:12.000Z</time>
      </trkpt>
      <trkpt lat="48.70162" lon="1.72733">
        <ele>177</ele>
        <time>2011-09-20T08:57:19.000Z</time>
      </trkpt>
      <trkpt lat="48.70152" lon="1.72764">
        <ele>176.60000610352</ele>
        <time>2011-09-20T08:57:25.000Z</time>
      </trkpt>
      <trkpt lat="48.70141" lon="1.72796">
        <ele>176.60000610352</ele>
        <time>2011-09-20T08:57:31.000Z</time>
      </trkpt>
      <trkpt lat="48.70133" lon="1.7282">
        <ele>176.80000305176</ele>
        <time>2011-09-20T08:57:36.000Z</time>
      </trkpt>
      <trkpt lat="48.70122" lon="1.72849">
        <ele>177.39999389648</ele>
        <time>2011-09-20T08:57:43.000Z</time>
      </trkpt>
      <trkpt lat="48.70115" lon="1.7288">
        <ele>177.39999389648</ele>
        <time>2011-09-20T08:57:49.000Z</time>
      </trkpt>
      <trkpt lat="48.70103" lon="1.72915">
        <ele>177.39999389648</ele>
        <time>2011-09-20T08:57:56.000Z</time>
      </trkpt>
      <trkpt lat="48.70094" lon="1.7294">
        <ele>178.39999389648</ele>
        <time>2011-09-20T08:58:01.000Z</time>
      </trkpt>
      <trkpt lat="48.70086" lon="1.72967">
        <ele>179.39999389648</ele>
        <time>2011-09-20T08:58:06.000Z</time>
      </trkpt>
      <trkpt lat="48.70077" lon="1.7299">
        <ele>180.39999389648</ele>
        <time>2011-09-20T08:58:11.000Z</time>
      </trkpt>
      <trkpt lat="48.70069" lon="1.73004">
        <ele>181.39999389648</ele>
        <time>2011-09-20T08:58:15.000Z</time>
      </trkpt>
      <trkpt lat="48.70063" lon="1.73026">
        <ele>182.19999694824</ele>
        <time>2011-09-20T08:58:20.000Z</time>
      </trkpt>
      <trkpt lat="48.70053" lon="1.73056">
        <ele>183.19999694824</ele>
        <time>2011-09-20T08:58:26.000Z</time>
      </trkpt>
      <trkpt lat="48.70045" lon="1.73077">
        <ele>183.80000305176</ele>
        <time>2011-09-20T08:58:30.000Z</time>
      </trkpt>
      <trkpt lat="48.70037" lon="1.73104">
        <ele>183.39999389648</ele>
        <time>2011-09-20T08:58:35.000Z</time>
      </trkpt>
      <trkpt lat="48.70032" lon="1.73124">
        <ele>183</ele>
        <time>2011-09-20T08:58:39.000Z</time>
      </trkpt>
      <trkpt lat="48.70025" lon="1.73151">
        <ele>182.19999694824</ele>
        <time>2011-09-20T08:58:44.000Z</time>
      </trkpt>
      <trkpt lat="48.70014" lon="1.73171">
        <ele>181.60000610352</ele>
        <time>2011-09-20T08:58:49.000Z</time>
      </trkpt>
      <trkpt lat="48.69999" lon="1.73199">
        <ele>180.19999694824</ele>
        <time>2011-09-20T08:58:55.000Z</time>
      </trkpt>
      <trkpt lat="48.6999" lon="1.7322">
        <ele>179</ele>
        <time>2011-09-20T08:58:59.000Z</time>
      </trkpt>
      <trkpt lat="48.69988" lon="1.73224">
        <ele>178.60000610352</ele>
        <time>2011-09-20T08:59:00.000Z</time>
      </trkpt>
      <trkpt lat="48.69976" lon="1.73248">
        <ele>177.19999694824</ele>
        <time>2011-09-20T08:59:05.000Z</time>
      </trkpt>
      <trkpt lat="48.6996" lon="1.7328">
        <ele>177</ele>
        <time>2011-09-20T08:59:12.000Z</time>
      </trkpt>
      <trkpt lat="48.69945" lon="1.7331">
        <ele>177</ele>
        <time>2011-09-20T08:59:18.000Z</time>
      </trkpt>
      <trkpt lat="48.69941" lon="1.7332">
        <ele>177.19999694824</ele>
        <time>2011-09-20T08:59:20.000Z</time>
      </trkpt>
      <trkpt lat="48.69925" lon="1.73352">
        <ele>177.39999389648</ele>
        <time>2011-09-20T08:59:27.000Z</time>
      </trkpt>
      <trkpt lat="48.69913" lon="1.73376">
        <ele>178</ele>
        <time>2011-09-20T08:59:32.000Z</time>
      </trkpt>
      <trkpt lat="48.69903" lon="1.73395">
        <ele>178.39999389648</ele>
        <time>2011-09-20T08:59:37.000Z</time>
      </trkpt>
      <trkpt lat="48.69894" lon="1.73417">
        <ele>178.80000305176</ele>
        <time>2011-09-20T08:59:42.000Z</time>
      </trkpt>
      <trkpt lat="48.69881" lon="1.7344">
        <ele>178.39999389648</ele>
        <time>2011-09-20T08:59:48.000Z</time>
      </trkpt>
      <trkpt lat="48.69874" lon="1.73455">
        <ele>178.19999694824</ele>
        <time>2011-09-20T08:59:52.000Z</time>
      </trkpt>
      <trkpt lat="48.69866" lon="1.73475">
        <ele>178</ele>
        <time>2011-09-20T08:59:57.000Z</time>
      </trkpt>
      <trkpt lat="48.69855" lon="1.73495">
        <ele>178.19999694824</ele>
        <time>2011-09-20T09:00:02.000Z</time>
      </trkpt>
      <trkpt lat="48.69843" lon="1.73513">
        <ele>178.60000610352</ele>
        <time>2011-09-20T09:00:07.000Z</time>
      </trkpt>
      <trkpt lat="48.69835" lon="1.7353">
        <ele>178.80000305176</ele>
        <time>2011-09-20T09:00:12.000Z</time>
      </trkpt>
      <trkpt lat="48.69828" lon="1.73551">
        <ele>179</ele>
        <time>2011-09-20T09:00:16.000Z</time>
      </trkpt>
      <trkpt lat="48.69813" lon="1.73578">
        <ele>179</ele>
        <time>2011-09-20T09:00:22.000Z</time>
      </trkpt>
      <trkpt lat="48.69802" lon="1.73602">
        <ele>179</ele>
        <time>2011-09-20T09:00:27.000Z</time>
      </trkpt>
      <trkpt lat="48.6979" lon="1.73622">
        <ele>179.19999694824</ele>
        <time>2011-09-20T09:00:32.000Z</time>
      </trkpt>
      <trkpt lat="48.69785" lon="1.73639">
        <ele>179.19999694824</ele>
        <time>2011-09-20T09:00:36.000Z</time>
      </trkpt>
      <trkpt lat="48.69778" lon="1.73661">
        <ele>179.60000610352</ele>
        <time>2011-09-20T09:00:41.000Z</time>
      </trkpt>
      <trkpt lat="48.69774" lon="1.73675">
        <ele>179.39999389648</ele>
        <time>2011-09-20T09:00:45.000Z</time>
      </trkpt>
      <trkpt lat="48.69768" lon="1.73686">
        <ele>179</ele>
        <time>2011-09-20T09:00:49.000Z</time>
      </trkpt>
      <trkpt lat="48.69759" lon="1.73699">
        <ele>178.80000305176</ele>
        <time>2011-09-20T09:00:54.000Z</time>
      </trkpt>
      <trkpt lat="48.69746" lon="1.7372">
        <ele>178</ele>
        <time>2011-09-20T09:01:01.000Z</time>
      </trkpt>
      <trkpt lat="48.69739" lon="1.73738">
        <ele>177.60000610352</ele>
        <time>2011-09-20T09:01:06.000Z</time>
      </trkpt>
      <trkpt lat="48.69728" lon="1.73761">
        <ele>177.19999694824</ele>
        <time>2011-09-20T09:01:12.000Z</time>
      </trkpt>
      <trkpt lat="48.69718" lon="1.73779">
        <ele>177.19999694824</ele>
        <time>2011-09-20T09:01:17.000Z</time>
      </trkpt>
      <trkpt lat="48.69709" lon="1.73798">
        <ele>177</ele>
        <time>2011-09-20T09:01:22.000Z</time>
      </trkpt>
      <trkpt lat="48.69702" lon="1.73805">
        <ele>177.19999694824</ele>
        <time>2011-09-20T09:01:25.000Z</time>
      </trkpt>
      <trkpt lat="48.69691" lon="1.7383">
        <ele>177</ele>
        <time>2011-09-20T09:01:31.000Z</time>
      </trkpt>
      <trkpt lat="48.69678" lon="1.73855">
        <ele>177</ele>
        <time>2011-09-20T09:01:37.000Z</time>
      </trkpt>
      <trkpt lat="48.69667" lon="1.73875">
        <ele>177</ele>
        <time>2011-09-20T09:01:42.000Z</time>
      </trkpt>
      <trkpt lat="48.69655" lon="1.73895">
        <ele>177.19999694824</ele>
        <time>2011-09-20T09:01:47.000Z</time>
      </trkpt>
      <trkpt lat="48.69647" lon="1.73917">
        <ele>177.39999389648</ele>
        <time>2011-09-20T09:01:52.000Z</time>
      </trkpt>
      <trkpt lat="48.69632" lon="1.73942">
        <ele>177.80000305176</ele>
        <time>2011-09-20T09:01:58.000Z</time>
      </trkpt>
      <trkpt lat="48.69622" lon="1.73964">
        <ele>178</ele>
        <time>2011-09-20T09:02:03.000Z</time>
      </trkpt>
      <trkpt lat="48.69617" lon="1.73976">
        <ele>178</ele>
        <time>2011-09-20T09:02:06.000Z</time>
      </trkpt>
      <trkpt lat="48.6962" lon="1.73995">
        <ele>177.39999389648</ele>
        <time>2011-09-20T09:02:11.000Z</time>
      </trkpt>
      <trkpt lat="48.69627" lon="1.74025">
        <ele>176.19999694824</ele>
        <time>2011-09-20T09:02:16.000Z</time>
      </trkpt>
      <trkpt lat="48.69632" lon="1.74049">
        <ele>175.19999694824</ele>
        <time>2011-09-20T09:02:20.000Z</time>
      </trkpt>
      <trkpt lat="48.69635" lon="1.74069">
        <ele>174.39999389648</ele>
        <time>2011-09-20T09:02:24.000Z</time>
      </trkpt>
      <trkpt lat="48.69642" lon="1.74091">
        <ele>173.60000610352</ele>
        <time>2011-09-20T09:02:28.000Z</time>
      </trkpt>
      <trkpt lat="48.6965" lon="1.74121">
        <ele>172.60000610352</ele>
        <time>2011-09-20T09:02:33.000Z</time>
      </trkpt>
      <trkpt lat="48.69652" lon="1.74127">
        <ele>172.39999389648</ele>
        <time>2011-09-20T09:02:34.000Z</time>
      </trkpt>
      <trkpt lat="48.69654" lon="1.74137">
        <ele>172.19999694824</ele>
        <time>2011-09-20T09:02:36.000Z</time>
      </trkpt>
      <trkpt lat="48.69661" lon="1.74167">
        <ele>171.39999389648</ele>
        <time>2011-09-20T09:02:42.000Z</time>
      </trkpt>
      <trkpt lat="48.69667" lon="1.74184">
        <ele>170.80000305176</ele>
        <time>2011-09-20T09:02:47.000Z</time>
      </trkpt>
      <trkpt lat="48.69669" lon="1.74188">
        <ele>170.80000305176</ele>
        <time>2011-09-20T09:02:48.000Z</time>
      </trkpt>
      <trkpt lat="48.69671" lon="1.74212">
        <ele>170.80000305176</ele>
        <time>2011-09-20T09:02:53.000Z</time>
      </trkpt>
      <trkpt lat="48.69674" lon="1.74229">
        <ele>170.60000610352</ele>
        <time>2011-09-20T09:02:57.000Z</time>
      </trkpt>
      <trkpt lat="48.69682" lon="1.74256">
        <ele>170.39999389648</ele>
        <time>2011-09-20T09:03:02.000Z</time>
      </trkpt>
      <trkpt lat="48.69689" lon="1.74286">
        <ele>169.80000305176</ele>
        <time>2011-09-20T09:03:07.000Z</time>
      </trkpt>
      <trkpt lat="48.69694" lon="1.74314">
        <ele>169.19999694824</ele>
        <time>2011-09-20T09:03:12.000Z</time>
      </trkpt>
      <trkpt lat="48.69696" lon="1.74325">
        <ele>169</ele>
        <time>2011-09-20T09:03:14.000Z</time>
      </trkpt>
      <trkpt lat="48.69704" lon="1.74365">
        <ele>167.80000305176</ele>
        <time>2011-09-20T09:03:21.000Z</time>
      </trkpt>
      <trkpt lat="48.69708" lon="1.74376">
        <ele>167.39999389648</ele>
        <time>2011-09-20T09:03:23.000Z</time>
      </trkpt>
      <trkpt lat="48.69716" lon="1.74397">
        <ele>166.60000610352</ele>
        <time>2011-09-20T09:03:27.000Z</time>
      </trkpt>
      <trkpt lat="48.69723" lon="1.7443">
        <ele>165.39999389648</ele>
        <time>2011-09-20T09:03:33.000Z</time>
      </trkpt>
      <trkpt lat="48.69729" lon="1.74458">
        <ele>164.39999389648</ele>
        <time>2011-09-20T09:03:38.000Z</time>
      </trkpt>
      <trkpt lat="48.6973" lon="1.74464">
        <ele>164.19999694824</ele>
        <time>2011-09-20T09:03:39.000Z</time>
      </trkpt>
      <trkpt lat="48.69739" lon="1.74483">
        <ele>163.39999389648</ele>
        <time>2011-09-20T09:03:44.000Z</time>
      </trkpt>
      <trkpt lat="48.69742" lon="1.74512">
        <ele>162.80000305176</ele>
        <time>2011-09-20T09:03:49.000Z</time>
      </trkpt>
      <trkpt lat="48.69749" lon="1.74534">
        <ele>162</ele>
        <time>2011-09-20T09:03:53.000Z</time>
      </trkpt>
      <trkpt lat="48.69752" lon="1.74548">
        <ele>161.80000305176</ele>
        <time>2011-09-20T09:03:55.000Z</time>
      </trkpt>
      <trkpt lat="48.69759" lon="1.74582">
        <ele>161.19999694824</ele>
        <time>2011-09-20T09:04:01.000Z</time>
      </trkpt>
      <trkpt lat="48.69762" lon="1.74599">
        <ele>161.80000305176</ele>
        <time>2011-09-20T09:04:04.000Z</time>
      </trkpt>
      <trkpt lat="48.69772" lon="1.7463">
        <ele>163.39999389648</ele>
        <time>2011-09-20T09:04:10.000Z</time>
      </trkpt>
      <trkpt lat="48.69776" lon="1.74651">
        <ele>164.39999389648</ele>
        <time>2011-09-20T09:04:14.000Z</time>
      </trkpt>
      <trkpt lat="48.69782" lon="1.74677">
        <ele>165.80000305176</ele>
        <time>2011-09-20T09:04:19.000Z</time>
      </trkpt>
      <trkpt lat="48.69787" lon="1.74698">
        <ele>166.80000305176</ele>
        <time>2011-09-20T09:04:23.000Z</time>
      </trkpt>
      <trkpt lat="48.69793" lon="1.74727">
        <ele>168.19999694824</ele>
        <time>2011-09-20T09:04:29.000Z</time>
      </trkpt>
      <trkpt lat="48.698" lon="1.74754">
        <ele>169.80000305176</ele>
        <time>2011-09-20T09:04:35.000Z</time>
      </trkpt>
      <trkpt lat="48.69807" lon="1.74771">
        <ele>170.19999694824</ele>
        <time>2011-09-20T09:04:39.000Z</time>
      </trkpt>
      <trkpt lat="48.69813" lon="1.74808">
        <ele>170</ele>
        <time>2011-09-20T09:04:47.000Z</time>
      </trkpt>
      <trkpt lat="48.69822" lon="1.74841">
        <ele>169.80000305176</ele>
        <time>2011-09-20T09:04:53.000Z</time>
      </trkpt>
      <trkpt lat="48.69829" lon="1.74865">
        <ele>169.19999694824</ele>
        <time>2011-09-20T09:04:58.000Z</time>
      </trkpt>
      <trkpt lat="48.6982" lon="1.7488">
        <ele>168.19999694824</ele>
        <time>2011-09-20T09:05:03.000Z</time>
      </trkpt>
      <trkpt lat="48.69811" lon="1.74889">
        <ele>167.60000610352</ele>
        <time>2011-09-20T09:05:07.000Z</time>
      </trkpt>
      <trkpt lat="48.69812" lon="1.74918">
        <ele>166.60000610352</ele>
        <time>2011-09-20T09:05:13.000Z</time>
      </trkpt>
      <trkpt lat="48.69815" lon="1.74937">
        <ele>167</ele>
        <time>2011-09-20T09:05:17.000Z</time>
      </trkpt>
      <trkpt lat="48.69815" lon="1.74941">
        <ele>167.19999694824</ele>
        <time>2011-09-20T09:05:18.000Z</time>
      </trkpt>
      <trkpt lat="48.69822" lon="1.74968">
        <ele>167.80000305176</ele>
        <time>2011-09-20T09:05:23.000Z</time>
      </trkpt>
      <trkpt lat="48.69825" lon="1.74998">
        <ele>168.60000610352</ele>
        <time>2011-09-20T09:05:28.000Z</time>
      </trkpt>
      <trkpt lat="48.69831" lon="1.7503">
        <ele>169.19999694824</ele>
        <time>2011-09-20T09:05:34.000Z</time>
      </trkpt>
      <trkpt lat="48.69833" lon="1.75062">
        <ele>169.60000610352</ele>
        <time>2011-09-20T09:05:40.000Z</time>
      </trkpt>
      <trkpt lat="48.69838" lon="1.75088">
        <ele>170.19999694824</ele>
        <time>2011-09-20T09:05:45.000Z</time>
      </trkpt>
      <trkpt lat="48.69843" lon="1.75109">
        <ele>170.39999389648</ele>
        <time>2011-09-20T09:05:49.000Z</time>
      </trkpt>
      <trkpt lat="48.69852" lon="1.75148">
        <ele>171.19999694824</ele>
        <time>2011-09-20T09:05:56.000Z</time>
      </trkpt>
      <trkpt lat="48.69856" lon="1.75171">
        <ele>171.80000305176</ele>
        <time>2011-09-20T09:06:00.000Z</time>
      </trkpt>
      <trkpt lat="48.69858" lon="1.75191">
        <ele>172.39999389648</ele>
        <time>2011-09-20T09:06:04.000Z</time>
      </trkpt>
      <trkpt lat="48.69864" lon="1.75227">
        <ele>173.39999389648</ele>
        <time>2011-09-20T09:06:11.000Z</time>
      </trkpt>
      <trkpt lat="48.6987" lon="1.75255">
        <ele>173.80000305176</ele>
        <time>2011-09-20T09:06:16.000Z</time>
      </trkpt>
      <trkpt lat="48.69873" lon="1.75277">
        <ele>173.39999389648</ele>
        <time>2011-09-20T09:06:20.000Z</time>
      </trkpt>
      <trkpt lat="48.69876" lon="1.75298">
        <ele>173</ele>
        <time>2011-09-20T09:06:24.000Z</time>
      </trkpt>
      <trkpt lat="48.69882" lon="1.75336">
        <ele>172.39999389648</ele>
        <time>2011-09-20T09:06:31.000Z</time>
      </trkpt>
      <trkpt lat="48.69885" lon="1.75364">
        <ele>172</ele>
        <time>2011-09-20T09:06:36.000Z</time>
      </trkpt>
      <trkpt lat="48.69895" lon="1.7538">
        <ele>172</ele>
        <time>2011-09-20T09:06:40.000Z</time>
      </trkpt>
      <trkpt lat="48.69908" lon="1.7538">
        <ele>172.19999694824</ele>
        <time>2011-09-20T09:06:44.000Z</time>
      </trkpt>
      <trkpt lat="48.69921" lon="1.75373">
        <ele>172.39999389648</ele>
        <time>2011-09-20T09:06:48.000Z</time>
      </trkpt>
      <trkpt lat="48.69928" lon="1.75372">
        <ele>172.19999694824</ele>
        <time>2011-09-20T09:06:50.000Z</time>
      </trkpt>
      <trkpt lat="48.69941" lon="1.75367">
        <ele>172</ele>
        <time>2011-09-20T09:06:55.000Z</time>
      </trkpt>
      <trkpt lat="48.69944" lon="1.75367">
        <ele>172</ele>
        <time>2011-09-20T09:06:56.000Z</time>
      </trkpt>
      <trkpt lat="48.69959" lon="1.75358">
        <ele>171.80000305176</ele>
        <time>2011-09-20T09:07:02.000Z</time>
      </trkpt>
      <trkpt lat="48.69981" lon="1.75354">
        <ele>171.60000610352</ele>
        <time>2011-09-20T09:07:06.000Z</time>
      </trkpt>
      <trkpt lat="48.69993" lon="1.75348">
        <ele>171.39999389648</ele>
        <time>2011-09-20T09:07:09.000Z</time>
      </trkpt>
      <trkpt lat="48.70007" lon="1.75341">
        <ele>171.60000610352</ele>
        <time>2011-09-20T09:07:13.000Z</time>
      </trkpt>
      <trkpt lat="48.70027" lon="1.75329">
        <ele>172.39999389648</ele>
        <time>2011-09-20T09:07:19.000Z</time>
      </trkpt>
      <trkpt lat="48.7004" lon="1.75322">
        <ele>172.80000305176</ele>
        <time>2011-09-20T09:07:24.000Z</time>
      </trkpt>
      <trkpt lat="48.70056" lon="1.75316">
        <ele>173.19999694824</ele>
        <time>2011-09-20T09:07:29.000Z</time>
      </trkpt>
      <trkpt lat="48.70074" lon="1.75308">
        <ele>173.60000610352</ele>
        <time>2011-09-20T09:07:34.000Z</time>
      </trkpt>
      <trkpt lat="48.70085" lon="1.75304">
        <ele>174</ele>
        <time>2011-09-20T09:07:37.000Z</time>
      </trkpt>
      <trkpt lat="48.70094" lon="1.753">
        <ele>174.39999389648</ele>
        <time>2011-09-20T09:07:40.000Z</time>
      </trkpt>
      <trkpt lat="48.70115" lon="1.75289">
        <ele>175</ele>
        <time>2011-09-20T09:07:46.000Z</time>
      </trkpt>
      <trkpt lat="48.70126" lon="1.75282">
        <ele>175.39999389648</ele>
        <time>2011-09-20T09:07:50.000Z</time>
      </trkpt>
      <trkpt lat="48.70141" lon="1.75276">
        <ele>175.60000610352</ele>
        <time>2011-09-20T09:07:55.000Z</time>
      </trkpt>
      <trkpt lat="48.70155" lon="1.75263">
        <ele>175.80000305176</ele>
        <time>2011-09-20T09:08:00.000Z</time>
      </trkpt>
      <trkpt lat="48.70164" lon="1.75257">
        <ele>175.80000305176</ele>
        <time>2011-09-20T09:08:04.000Z</time>
      </trkpt>
      <trkpt lat="48.70179" lon="1.75252">
        <ele>176.39999389648</ele>
        <time>2011-09-20T09:08:10.000Z</time>
      </trkpt>
      <trkpt lat="48.70194" lon="1.75245">
        <ele>177.19999694824</ele>
        <time>2011-09-20T09:08:15.000Z</time>
      </trkpt>
      <trkpt lat="48.70204" lon="1.75239">
        <ele>177.60000610352</ele>
        <time>2011-09-20T09:08:20.000Z</time>
      </trkpt>
      <trkpt lat="48.70206" lon="1.75238">
        <ele>177.80000305176</ele>
        <time>2011-09-20T09:08:21.000Z</time>
      </trkpt>
      <trkpt lat="48.70211" lon="1.75235">
        <ele>178</ele>
        <time>2011-09-20T09:08:25.000Z</time>
      </trkpt>
      <trkpt lat="48.70214" lon="1.75235">
        <ele>178</ele>
        <time>2011-09-20T09:08:27.000Z</time>
      </trkpt>
      <trkpt lat="48.70219" lon="1.75237">
        <ele>178.39999389648</ele>
        <time>2011-09-20T09:08:31.000Z</time>
      </trkpt>
      <trkpt lat="48.70229" lon="1.7524">
        <ele>178.80000305176</ele>
        <time>2011-09-20T09:08:38.000Z</time>
      </trkpt>
      <trkpt lat="48.70236" lon="1.75244">
        <ele>179.19999694824</ele>
        <time>2011-09-20T09:08:44.000Z</time>
      </trkpt>
      <trkpt lat="48.70243" lon="1.75251">
        <ele>179.60000610352</ele>
        <time>2011-09-20T09:08:52.000Z</time>
      </trkpt>
      <trkpt lat="48.70251" lon="1.75259">
        <ele>179.80000305176</ele>
        <time>2011-09-20T09:08:59.000Z</time>
      </trkpt>
      <trkpt lat="48.70254" lon="1.75262">
        <ele>179.80000305176</ele>
        <time>2011-09-20T09:09:02.000Z</time>
      </trkpt>
      <trkpt lat="48.70258" lon="1.75266">
        <ele>179.80000305176</ele>
        <time>2011-09-20T09:09:06.000Z</time>
      </trkpt>
      <trkpt lat="48.70262" lon="1.75267">
        <ele>180</ele>
        <time>2011-09-20T09:09:08.000Z</time>
      </trkpt>
      <trkpt lat="48.70265" lon="1.75272">
        <ele>180</ele>
        <time>2011-09-20T09:09:12.000Z</time>
      </trkpt>
      <trkpt lat="48.70273" lon="1.75276">
        <ele>180.19999694824</ele>
        <time>2011-09-20T09:09:18.000Z</time>
      </trkpt>
      <trkpt lat="48.70283" lon="1.7528">
        <ele>180.39999389648</ele>
        <time>2011-09-20T09:09:25.000Z</time>
      </trkpt>
      <trkpt lat="48.70289" lon="1.75284">
        <ele>180.39999389648</ele>
        <time>2011-09-20T09:09:30.000Z</time>
      </trkpt>
      <trkpt lat="48.70292" lon="1.75285">
        <ele>180.39999389648</ele>
        <time>2011-09-20T09:09:32.000Z</time>
      </trkpt>
      <trkpt lat="48.70299" lon="1.75296">
        <ele>180.60000610352</ele>
        <time>2011-09-20T09:09:39.000Z</time>
      </trkpt>
      <trkpt lat="48.70303" lon="1.75302">
        <ele>180.60000610352</ele>
        <time>2011-09-20T09:09:43.000Z</time>
      </trkpt>
      <trkpt lat="48.70307" lon="1.75317">
        <ele>180.39999389648</ele>
        <time>2011-09-20T09:09:51.000Z</time>
      </trkpt>
      <trkpt lat="48.70313" lon="1.75332">
        <ele>180.39999389648</ele>
        <time>2011-09-20T09:09:59.000Z</time>
      </trkpt>
      <trkpt lat="48.70317" lon="1.75335">
        <ele>180.60000610352</ele>
        <time>2011-09-20T09:10:02.000Z</time>
      </trkpt>
      <trkpt lat="48.70319" lon="1.75337">
        <ele>180.60000610352</ele>
        <time>2011-09-20T09:10:04.000Z</time>
      </trkpt>
      <trkpt lat="48.70324" lon="1.75342">
        <ele>180.60000610352</ele>
        <time>2011-09-20T09:10:09.000Z</time>
      </trkpt>
      <trkpt lat="48.70331" lon="1.75346">
        <ele>180.80000305176</ele>
        <time>2011-09-20T09:10:14.000Z</time>
      </trkpt>
      <trkpt lat="48.70337" lon="1.75352">
        <ele>180.80000305176</ele>
        <time>2011-09-20T09:10:20.000Z</time>
      </trkpt>
      <trkpt lat="48.70346" lon="1.75365">
        <ele>180.60000610352</ele>
        <time>2011-09-20T09:10:29.000Z</time>
      </trkpt>
      <trkpt lat="48.70354" lon="1.75373">
        <ele>180.60000610352</ele>
        <time>2011-09-20T09:10:36.000Z</time>
      </trkpt>
      <trkpt lat="48.70357" lon="1.75377">
        <ele>180.60000610352</ele>
        <time>2011-09-20T09:10:39.000Z</time>
      </trkpt>
      <trkpt lat="48.70363" lon="1.75383">
        <ele>180.60000610352</ele>
        <time>2011-09-20T09:10:44.000Z</time>
      </trkpt>
      <trkpt lat="48.70375" lon="1.75392">
        <ele>180.80000305176</ele>
        <time>2011-09-20T09:10:52.000Z</time>
      </trkpt>
      <trkpt lat="48.70384" lon="1.754">
        <ele>181</ele>
        <time>2011-09-20T09:10:58.000Z</time>
      </trkpt>
      <trkpt lat="48.70385" lon="1.75401">
        <ele>181</ele>
        <time>2011-09-20T09:10:59.000Z</time>
      </trkpt>
      <trkpt lat="48.70389" lon="1.75398">
        <ele>181</ele>
        <time>2011-09-20T09:11:06.000Z</time>
      </trkpt>
      <trkpt lat="48.70394" lon="1.75397">
        <ele>181</ele>
        <time>2011-09-20T09:11:11.000Z</time>
      </trkpt>
      <trkpt lat="48.70395" lon="1.75398">
        <ele>181</ele>
        <time>2011-09-20T09:11:12.000Z</time>
      </trkpt>
      <trkpt lat="48.70402" lon="1.75407">
        <ele>181.39999389648</ele>
        <time>2011-09-20T09:11:18.000Z</time>
      </trkpt>
      <trkpt lat="48.70402" lon="1.75408">
        <ele>181.39999389648</ele>
        <time>2011-09-20T09:11:20.000Z</time>
      </trkpt>
      <trkpt lat="48.70406" lon="1.75412">
        <ele>181.60000610352</ele>
        <time>2011-09-20T09:11:24.000Z</time>
      </trkpt>
      <trkpt lat="48.70416" lon="1.75419">
        <ele>182</ele>
        <time>2011-09-20T09:11:32.000Z</time>
      </trkpt>
      <trkpt lat="48.70424" lon="1.75422">
        <ele>181.60000610352</ele>
        <time>2011-09-20T09:11:37.000Z</time>
      </trkpt>
      <trkpt lat="48.70431" lon="1.75426">
        <ele>181.19999694824</ele>
        <time>2011-09-20T09:11:41.000Z</time>
      </trkpt>
      <trkpt lat="48.70435" lon="1.75428">
        <ele>181</ele>
        <time>2011-09-20T09:11:43.000Z</time>
      </trkpt>
      <trkpt lat="48.70442" lon="1.75433">
        <ele>180.60000610352</ele>
        <time>2011-09-20T09:11:48.000Z</time>
      </trkpt>
      <trkpt lat="48.70452" lon="1.75441">
        <ele>180.39999389648</ele>
        <time>2011-09-20T09:11:56.000Z</time>
      </trkpt>
      <trkpt lat="48.70454" lon="1.75442">
        <ele>180.19999694824</ele>
        <time>2011-09-20T09:11:58.000Z</time>
      </trkpt>
      <trkpt lat="48.70461" lon="1.75449">
        <ele>180</ele>
        <time>2011-09-20T09:12:05.000Z</time>
      </trkpt>
      <trkpt lat="48.70471" lon="1.75457">
        <ele>179.80000305176</ele>
        <time>2011-09-20T09:12:12.000Z</time>
      </trkpt>
      <trkpt lat="48.70481" lon="1.75463">
        <ele>179.60000610352</ele>
        <time>2011-09-20T09:12:17.000Z</time>
      </trkpt>
      <trkpt lat="48.70486" lon="1.75472">
        <ele>179.80000305176</ele>
        <time>2011-09-20T09:12:23.000Z</time>
      </trkpt>
      <trkpt lat="48.7049" lon="1.75478">
        <ele>180</ele>
        <time>2011-09-20T09:12:27.000Z</time>
      </trkpt>
      <trkpt lat="48.70495" lon="1.75482">
        <ele>180</ele>
        <time>2011-09-20T09:12:31.000Z</time>
      </trkpt>
      <trkpt lat="48.70499" lon="1.75486">
        <ele>180.19999694824</ele>
        <time>2011-09-20T09:12:35.000Z</time>
      </trkpt>
      <trkpt lat="48.70502" lon="1.75488">
        <ele>180</ele>
        <time>2011-09-20T09:12:37.000Z</time>
      </trkpt>
      <trkpt lat="48.7051" lon="1.75495">
        <ele>179.80000305176</ele>
        <time>2011-09-20T09:12:44.000Z</time>
      </trkpt>
      <trkpt lat="48.70514" lon="1.75505">
        <ele>180</ele>
        <time>2011-09-20T09:12:50.000Z</time>
      </trkpt>
      <trkpt lat="48.70523" lon="1.75513">
        <ele>179.80000305176</ele>
        <time>2011-09-20T09:12:57.000Z</time>
      </trkpt>
      <trkpt lat="48.70529" lon="1.7552">
        <ele>179.80000305176</ele>
        <time>2011-09-20T09:13:04.000Z</time>
      </trkpt>
      <trkpt lat="48.70534" lon="1.75527">
        <ele>180</ele>
        <time>2011-09-20T09:13:09.000Z</time>
      </trkpt>
      <trkpt lat="48.70544" lon="1.75537">
        <ele>180.19999694824</ele>
        <time>2011-09-20T09:13:17.000Z</time>
      </trkpt>
      <trkpt lat="48.70549" lon="1.75542">
        <ele>180.19999694824</ele>
        <time>2011-09-20T09:13:21.000Z</time>
      </trkpt>
      <trkpt lat="48.70555" lon="1.75547">
        <ele>180.39999389648</ele>
        <time>2011-09-20T09:13:26.000Z</time>
      </trkpt>
      <trkpt lat="48.70563" lon="1.75553">
        <ele>180.60000610352</ele>
        <time>2011-09-20T09:13:32.000Z</time>
      </trkpt>
      <trkpt lat="48.70569" lon="1.75559">
        <ele>180.80000305176</ele>
        <time>2011-09-20T09:13:38.000Z</time>
      </trkpt>
      <trkpt lat="48.70577" lon="1.75568">
        <ele>181.60000610352</ele>
        <time>2011-09-20T09:13:46.000Z</time>
      </trkpt>
      <trkpt lat="48.70584" lon="1.75577">
        <ele>182.19999694824</ele>
        <time>2011-09-20T09:13:53.000Z</time>
      </trkpt>
      <trkpt lat="48.70592" lon="1.75589">
        <ele>182.19999694824</ele>
        <time>2011-09-20T09:14:01.000Z</time>
      </trkpt>
      <trkpt lat="48.70599" lon="1.75598">
        <ele>181.60000610352</ele>
        <time>2011-09-20T09:14:07.000Z</time>
      </trkpt>
      <trkpt lat="48.70604" lon="1.75609">
        <ele>181.39999389648</ele>
        <time>2011-09-20T09:14:14.000Z</time>
      </trkpt>
      <trkpt lat="48.70606" lon="1.75613">
        <ele>181.19999694824</ele>
        <time>2011-09-20T09:14:16.000Z</time>
      </trkpt>
      <trkpt lat="48.7061" lon="1.75618">
        <ele>180.80000305176</ele>
        <time>2011-09-20T09:14:20.000Z</time>
      </trkpt>
      <trkpt lat="48.7062" lon="1.75627">
        <ele>180</ele>
        <time>2011-09-20T09:14:27.000Z</time>
      </trkpt>
      <trkpt lat="48.70625" lon="1.75636">
        <ele>179.60000610352</ele>
        <time>2011-09-20T09:14:32.000Z</time>
      </trkpt>
      <trkpt lat="48.70631" lon="1.75643">
        <ele>179</ele>
        <time>2011-09-20T09:14:37.000Z</time>
      </trkpt>
      <trkpt lat="48.70636" lon="1.75649">
        <ele>178.39999389648</ele>
        <time>2011-09-20T09:14:41.000Z</time>
      </trkpt>
      <trkpt lat="48.70637" lon="1.75649">
        <ele>178.19999694824</ele>
        <time>2011-09-20T09:14:47.000Z</time>
      </trkpt>
      <trkpt lat="48.70637" lon="1.75649">
        <ele>178.19999694824</ele>
        <time>2011-09-20T09:14:49.000Z</time>
      </trkpt>
      <trkpt lat="48.70637" lon="1.7565">
        <ele>178.39999389648</ele>
        <time>2011-09-20T09:14:56.000Z</time>
      </trkpt>
      <trkpt lat="48.70635" lon="1.75652">
        <ele>178.60000610352</ele>
        <time>2011-09-20T09:14:58.000Z</time>
      </trkpt>
      <trkpt lat="48.70634" lon="1.75652">
        <ele>178.60000610352</ele>
        <time>2011-09-20T09:15:00.000Z</time>
      </trkpt>
      <trkpt lat="48.70645" lon="1.75662">
        <ele>177.39999389648</ele>
        <time>2011-09-20T09:15:55.000Z</time>
      </trkpt>
      <trkpt lat="48.70649" lon="1.75668">
        <ele>177</ele>
        <time>2011-09-20T09:15:57.000Z</time>
      </trkpt>
      <trkpt lat="48.70657" lon="1.75676">
        <ele>176</ele>
        <time>2011-09-20T09:16:04.000Z</time>
      </trkpt>
      <trkpt lat="48.70665" lon="1.75685">
        <ele>174.80000305176</ele>
        <time>2011-09-20T09:16:11.000Z</time>
      </trkpt>
      <trkpt lat="48.70672" lon="1.75689">
        <ele>174.60000610352</ele>
        <time>2011-09-20T09:16:16.000Z</time>
      </trkpt>
      <trkpt lat="48.70678" lon="1.75698">
        <ele>174.39999389648</ele>
        <time>2011-09-20T09:16:23.000Z</time>
      </trkpt>
      <trkpt lat="48.70684" lon="1.75703">
        <ele>174.19999694824</ele>
        <time>2011-09-20T09:16:29.000Z</time>
      </trkpt>
      <trkpt lat="48.70691" lon="1.75712">
        <ele>174</ele>
        <time>2011-09-20T09:16:37.000Z</time>
      </trkpt>
      <trkpt lat="48.70698" lon="1.75721">
        <ele>174</ele>
        <time>2011-09-20T09:16:44.000Z</time>
      </trkpt>
      <trkpt lat="48.70707" lon="1.75733">
        <ele>174</ele>
        <time>2011-09-20T09:16:53.000Z</time>
      </trkpt>
      <trkpt lat="48.70716" lon="1.75744">
        <ele>173.80000305176</ele>
        <time>2011-09-20T09:17:02.000Z</time>
      </trkpt>
      <trkpt lat="48.70722" lon="1.75753">
        <ele>173.80000305176</ele>
        <time>2011-09-20T09:17:09.000Z</time>
      </trkpt>
      <trkpt lat="48.70725" lon="1.75759">
        <ele>173.80000305176</ele>
        <time>2011-09-20T09:17:13.000Z</time>
      </trkpt>
      <trkpt lat="48.7073" lon="1.75764">
        <ele>173.60000610352</ele>
        <time>2011-09-20T09:17:17.000Z</time>
      </trkpt>
      <trkpt lat="48.70728" lon="1.75765">
        <ele>173.60000610352</ele>
        <time>2011-09-20T09:17:21.000Z</time>
      </trkpt>
      <trkpt lat="48.70727" lon="1.75764">
        <ele>173.60000610352</ele>
        <time>2011-09-20T09:17:25.000Z</time>
      </trkpt>
    </trkseg>
  </trk>
</gpx>